<?xml version="1.0" encoding="UTF-8" standalone="no" ?>
<gpx xmlns="http://www.topografix.com/GPX/1/1" xmlns:xsi="http://www.w3.org/2001/XMLSchema-instance" xsi:schemaLocation="http://www.topografix.com/GPX/1/1 http://www.topografix.com/GPX/1/1/gpx.xsd" version="1.1" creator="VisuGPX - https://www.visugpx.com">
  <metadata>
    <name>ASLPM marche Angoulins le 9 Février 2015</name>
    <desc><![CDATA[ASLPM Marche Angoulins le 9 Février 2015.]]></desc>
  </metadata>
  <trk>
    <name><![CDATA[Marche Angoulins]]></name>
    <trkseg>
      <trkpt lat="46.10595" lon="-1.11693">
        <ele>7</ele>
        <time>2015-02-09T08:13:45.000Z</time>
      </trkpt>
      <trkpt lat="46.10593" lon="-1.11698">
        <ele>7</ele>
        <time>2015-02-09T08:13:49.000Z</time>
      </trkpt>
      <trkpt lat="46.10588" lon="-1.11713">
        <ele>7</ele>
        <time>2015-02-09T08:13:59.000Z</time>
      </trkpt>
      <trkpt lat="46.10584" lon="-1.11724">
        <ele>7</ele>
        <time>2015-02-09T08:14:07.000Z</time>
      </trkpt>
      <trkpt lat="46.10579" lon="-1.11743">
        <ele>7</ele>
        <time>2015-02-09T08:14:19.000Z</time>
      </trkpt>
      <trkpt lat="46.10577" lon="-1.11752">
        <ele>7</ele>
        <time>2015-02-09T08:14:26.000Z</time>
      </trkpt>
      <trkpt lat="46.10575" lon="-1.11765">
        <ele>7</ele>
        <time>2015-02-09T08:14:34.000Z</time>
      </trkpt>
      <trkpt lat="46.10571" lon="-1.11782">
        <ele>7</ele>
        <time>2015-02-09T08:14:44.000Z</time>
      </trkpt>
      <trkpt lat="46.10566" lon="-1.11803">
        <ele>7</ele>
        <time>2015-02-09T08:14:56.000Z</time>
      </trkpt>
      <trkpt lat="46.10561" lon="-1.11819">
        <ele>7</ele>
        <time>2015-02-09T08:15:06.000Z</time>
      </trkpt>
      <trkpt lat="46.10556" lon="-1.11837">
        <ele>7</ele>
        <time>2015-02-09T08:15:16.000Z</time>
      </trkpt>
      <trkpt lat="46.10548" lon="-1.11858">
        <ele>7</ele>
        <time>2015-02-09T08:15:29.000Z</time>
      </trkpt>
      <trkpt lat="46.10543" lon="-1.11868">
        <ele>7</ele>
        <time>2015-02-09T08:15:36.000Z</time>
      </trkpt>
      <trkpt lat="46.10532" lon="-1.11879">
        <ele>7</ele>
        <time>2015-02-09T08:15:45.000Z</time>
      </trkpt>
      <trkpt lat="46.10519" lon="-1.11884">
        <ele>7</ele>
        <time>2015-02-09T08:15:55.000Z</time>
      </trkpt>
      <trkpt lat="46.10505" lon="-1.11887">
        <ele>7</ele>
        <time>2015-02-09T08:16:06.000Z</time>
      </trkpt>
      <trkpt lat="46.10496" lon="-1.11866">
        <ele>7</ele>
        <time>2015-02-09T08:16:21.000Z</time>
      </trkpt>
      <trkpt lat="46.10488" lon="-1.11852">
        <ele>7</ele>
        <time>2015-02-09T08:16:31.000Z</time>
      </trkpt>
      <trkpt lat="46.10482" lon="-1.11844">
        <ele>7</ele>
        <time>2015-02-09T08:16:37.000Z</time>
      </trkpt>
      <trkpt lat="46.10475" lon="-1.11838">
        <ele>7</ele>
        <time>2015-02-09T08:16:43.000Z</time>
      </trkpt>
      <trkpt lat="46.10461" lon="-1.11835">
        <ele>7</ele>
        <time>2015-02-09T08:16:53.000Z</time>
      </trkpt>
      <trkpt lat="46.10449" lon="-1.11832">
        <ele>7</ele>
        <time>2015-02-09T08:17:02.000Z</time>
      </trkpt>
      <trkpt lat="46.10437" lon="-1.1183">
        <ele>7</ele>
        <time>2015-02-09T08:17:11.000Z</time>
      </trkpt>
      <trkpt lat="46.10421" lon="-1.11829">
        <ele>7</ele>
        <time>2015-02-09T08:17:23.000Z</time>
      </trkpt>
      <trkpt lat="46.10406" lon="-1.11829">
        <ele>7</ele>
        <time>2015-02-09T08:17:34.000Z</time>
      </trkpt>
      <trkpt lat="46.10391" lon="-1.11829">
        <ele>8</ele>
        <time>2015-02-09T08:17:45.000Z</time>
      </trkpt>
      <trkpt lat="46.10379" lon="-1.11828">
        <ele>8.6000003814697</ele>
        <time>2015-02-09T08:17:54.000Z</time>
      </trkpt>
      <trkpt lat="46.10363" lon="-1.11828">
        <ele>8.8000001907349</ele>
        <time>2015-02-09T08:18:05.000Z</time>
      </trkpt>
      <trkpt lat="46.10345" lon="-1.11826">
        <ele>9</ele>
        <time>2015-02-09T08:18:19.000Z</time>
      </trkpt>
      <trkpt lat="46.10331" lon="-1.11825">
        <ele>9</ele>
        <time>2015-02-09T08:18:29.000Z</time>
      </trkpt>
      <trkpt lat="46.10324" lon="-1.1182">
        <ele>9</ele>
        <time>2015-02-09T08:18:35.000Z</time>
      </trkpt>
      <trkpt lat="46.10315" lon="-1.11814">
        <ele>9</ele>
        <time>2015-02-09T08:18:43.000Z</time>
      </trkpt>
      <trkpt lat="46.1031" lon="-1.11808">
        <ele>9</ele>
        <time>2015-02-09T08:18:48.000Z</time>
      </trkpt>
      <trkpt lat="46.10309" lon="-1.11799">
        <ele>9</ele>
        <time>2015-02-09T08:18:54.000Z</time>
      </trkpt>
      <trkpt lat="46.10302" lon="-1.11781">
        <ele>9</ele>
        <time>2015-02-09T08:19:05.000Z</time>
      </trkpt>
      <trkpt lat="46.10298" lon="-1.11761">
        <ele>9</ele>
        <time>2015-02-09T08:19:16.000Z</time>
      </trkpt>
      <trkpt lat="46.10296" lon="-1.11745">
        <ele>9</ele>
        <time>2015-02-09T08:19:31.000Z</time>
      </trkpt>
      <trkpt lat="46.10297" lon="-1.11752">
        <ele>9</ele>
        <time>2015-02-09T08:19:40.000Z</time>
      </trkpt>
      <trkpt lat="46.10299" lon="-1.1177">
        <ele>9</ele>
        <time>2015-02-09T08:19:50.000Z</time>
      </trkpt>
      <trkpt lat="46.10302" lon="-1.11781">
        <ele>9</ele>
        <time>2015-02-09T08:19:57.000Z</time>
      </trkpt>
      <trkpt lat="46.10311" lon="-1.11793">
        <ele>9</ele>
        <time>2015-02-09T08:20:06.000Z</time>
      </trkpt>
      <trkpt lat="46.10312" lon="-1.11792">
        <ele>9</ele>
        <time>2015-02-09T08:20:07.000Z</time>
      </trkpt>
      <trkpt lat="46.10315" lon="-1.11781">
        <ele>9</ele>
        <time>2015-02-09T08:20:15.000Z</time>
      </trkpt>
      <trkpt lat="46.10316" lon="-1.11767">
        <ele>9</ele>
        <time>2015-02-09T08:20:24.000Z</time>
      </trkpt>
      <trkpt lat="46.10319" lon="-1.11757">
        <ele>9</ele>
        <time>2015-02-09T08:20:32.000Z</time>
      </trkpt>
      <trkpt lat="46.10323" lon="-1.11744">
        <ele>9</ele>
        <time>2015-02-09T08:20:40.000Z</time>
      </trkpt>
      <trkpt lat="46.10329" lon="-1.11725">
        <ele>9</ele>
        <time>2015-02-09T08:20:52.000Z</time>
      </trkpt>
      <trkpt lat="46.10333" lon="-1.11709">
        <ele>9</ele>
        <time>2015-02-09T08:21:01.000Z</time>
      </trkpt>
      <trkpt lat="46.10338" lon="-1.11688">
        <ele>9</ele>
        <time>2015-02-09T08:21:18.000Z</time>
      </trkpt>
      <trkpt lat="46.10342" lon="-1.11676">
        <ele>9.6000003814697</ele>
        <time>2015-02-09T08:21:26.000Z</time>
      </trkpt>
      <trkpt lat="46.10348" lon="-1.11655">
        <ele>10.60000038147</ele>
        <time>2015-02-09T08:21:38.000Z</time>
      </trkpt>
      <trkpt lat="46.10352" lon="-1.1164">
        <ele>10.800000190735</ele>
        <time>2015-02-09T08:21:46.000Z</time>
      </trkpt>
      <trkpt lat="46.10357" lon="-1.11619">
        <ele>11</ele>
        <time>2015-02-09T08:21:57.000Z</time>
      </trkpt>
      <trkpt lat="46.1036" lon="-1.11599">
        <ele>11</ele>
        <time>2015-02-09T08:22:07.000Z</time>
      </trkpt>
      <trkpt lat="46.10363" lon="-1.1158">
        <ele>11</ele>
        <time>2015-02-09T08:22:17.000Z</time>
      </trkpt>
      <trkpt lat="46.10366" lon="-1.1156">
        <ele>11</ele>
        <time>2015-02-09T08:22:27.000Z</time>
      </trkpt>
      <trkpt lat="46.10369" lon="-1.11538">
        <ele>11</ele>
        <time>2015-02-09T08:22:38.000Z</time>
      </trkpt>
      <trkpt lat="46.10372" lon="-1.11515">
        <ele>11</ele>
        <time>2015-02-09T08:22:50.000Z</time>
      </trkpt>
      <trkpt lat="46.10375" lon="-1.11494">
        <ele>11</ele>
        <time>2015-02-09T08:23:01.000Z</time>
      </trkpt>
      <trkpt lat="46.1038" lon="-1.1147">
        <ele>11</ele>
        <time>2015-02-09T08:23:14.000Z</time>
      </trkpt>
      <trkpt lat="46.10383" lon="-1.11449">
        <ele>11</ele>
        <time>2015-02-09T08:23:25.000Z</time>
      </trkpt>
      <trkpt lat="46.10386" lon="-1.11427">
        <ele>11.39999961853</ele>
        <time>2015-02-09T08:23:37.000Z</time>
      </trkpt>
      <trkpt lat="46.10389" lon="-1.11409">
        <ele>12.39999961853</ele>
        <time>2015-02-09T08:23:47.000Z</time>
      </trkpt>
      <trkpt lat="46.10392" lon="-1.11389">
        <ele>12.800000190735</ele>
        <time>2015-02-09T08:23:58.000Z</time>
      </trkpt>
      <trkpt lat="46.10386" lon="-1.11381">
        <ele>13</ele>
        <time>2015-02-09T08:24:05.000Z</time>
      </trkpt>
      <trkpt lat="46.10372" lon="-1.11374">
        <ele>13</ele>
        <time>2015-02-09T08:24:16.000Z</time>
      </trkpt>
      <trkpt lat="46.1036" lon="-1.11366">
        <ele>13</ele>
        <time>2015-02-09T08:24:26.000Z</time>
      </trkpt>
      <trkpt lat="46.10346" lon="-1.11358">
        <ele>13</ele>
        <time>2015-02-09T08:24:38.000Z</time>
      </trkpt>
      <trkpt lat="46.10332" lon="-1.1135">
        <ele>13</ele>
        <time>2015-02-09T08:24:49.000Z</time>
      </trkpt>
      <trkpt lat="46.10319" lon="-1.11343">
        <ele>13</ele>
        <time>2015-02-09T08:25:00.000Z</time>
      </trkpt>
      <trkpt lat="46.10309" lon="-1.11336">
        <ele>13</ele>
        <time>2015-02-09T08:25:09.000Z</time>
      </trkpt>
      <trkpt lat="46.10296" lon="-1.11327">
        <ele>13</ele>
        <time>2015-02-09T08:25:20.000Z</time>
      </trkpt>
      <trkpt lat="46.10282" lon="-1.11317">
        <ele>13</ele>
        <time>2015-02-09T08:25:31.000Z</time>
      </trkpt>
      <trkpt lat="46.10271" lon="-1.11309">
        <ele>11.800000190735</ele>
        <time>2015-02-09T08:25:41.000Z</time>
      </trkpt>
      <trkpt lat="46.1026" lon="-1.11299">
        <ele>11.199999809265</ele>
        <time>2015-02-09T08:25:51.000Z</time>
      </trkpt>
      <trkpt lat="46.10248" lon="-1.11289">
        <ele>11</ele>
        <time>2015-02-09T08:26:01.000Z</time>
      </trkpt>
      <trkpt lat="46.10226" lon="-1.1127">
        <ele>11</ele>
        <time>2015-02-09T08:26:21.000Z</time>
      </trkpt>
      <trkpt lat="46.10216" lon="-1.1126">
        <ele>11</ele>
        <time>2015-02-09T08:26:30.000Z</time>
      </trkpt>
      <trkpt lat="46.10211" lon="-1.11255">
        <ele>11</ele>
        <time>2015-02-09T08:26:36.000Z</time>
      </trkpt>
      <trkpt lat="46.102" lon="-1.11245">
        <ele>11</ele>
        <time>2015-02-09T08:26:46.000Z</time>
      </trkpt>
      <trkpt lat="46.10189" lon="-1.11234">
        <ele>11</ele>
        <time>2015-02-09T08:26:56.000Z</time>
      </trkpt>
      <trkpt lat="46.10178" lon="-1.11222">
        <ele>11</ele>
        <time>2015-02-09T08:27:07.000Z</time>
      </trkpt>
      <trkpt lat="46.10166" lon="-1.1121">
        <ele>11</ele>
        <time>2015-02-09T08:27:18.000Z</time>
      </trkpt>
      <trkpt lat="46.10153" lon="-1.11195">
        <ele>11</ele>
        <time>2015-02-09T08:27:31.000Z</time>
      </trkpt>
      <trkpt lat="46.1013" lon="-1.11167">
        <ele>11</ele>
        <time>2015-02-09T08:27:53.000Z</time>
      </trkpt>
      <trkpt lat="46.10119" lon="-1.11152">
        <ele>11</ele>
        <time>2015-02-09T08:28:05.000Z</time>
      </trkpt>
      <trkpt lat="46.10106" lon="-1.11134">
        <ele>11</ele>
        <time>2015-02-09T08:28:18.000Z</time>
      </trkpt>
      <trkpt lat="46.10095" lon="-1.11118">
        <ele>11</ele>
        <time>2015-02-09T08:28:30.000Z</time>
      </trkpt>
      <trkpt lat="46.10085" lon="-1.11103">
        <ele>11</ele>
        <time>2015-02-09T08:28:40.000Z</time>
      </trkpt>
      <trkpt lat="46.10076" lon="-1.1109">
        <ele>11</ele>
        <time>2015-02-09T08:28:49.000Z</time>
      </trkpt>
      <trkpt lat="46.10065" lon="-1.11073">
        <ele>11</ele>
        <time>2015-02-09T08:29:00.000Z</time>
      </trkpt>
      <trkpt lat="46.10054" lon="-1.11054">
        <ele>11</ele>
        <time>2015-02-09T08:29:12.000Z</time>
      </trkpt>
      <trkpt lat="46.10046" lon="-1.11039">
        <ele>11</ele>
        <time>2015-02-09T08:29:22.000Z</time>
      </trkpt>
      <trkpt lat="46.10036" lon="-1.11021">
        <ele>11</ele>
        <time>2015-02-09T08:29:34.000Z</time>
      </trkpt>
      <trkpt lat="46.10027" lon="-1.11005">
        <ele>11</ele>
        <time>2015-02-09T08:29:45.000Z</time>
      </trkpt>
      <trkpt lat="46.10019" lon="-1.1099">
        <ele>11</ele>
        <time>2015-02-09T08:29:55.000Z</time>
      </trkpt>
      <trkpt lat="46.10009" lon="-1.10973">
        <ele>11</ele>
        <time>2015-02-09T08:30:06.000Z</time>
      </trkpt>
      <trkpt lat="46.09997" lon="-1.1095">
        <ele>11</ele>
        <time>2015-02-09T08:30:21.000Z</time>
      </trkpt>
      <trkpt lat="46.09988" lon="-1.10934">
        <ele>11</ele>
        <time>2015-02-09T08:30:32.000Z</time>
      </trkpt>
      <trkpt lat="46.09978" lon="-1.10915">
        <ele>11</ele>
        <time>2015-02-09T08:30:44.000Z</time>
      </trkpt>
      <trkpt lat="46.09967" lon="-1.10896">
        <ele>11</ele>
        <time>2015-02-09T08:30:56.000Z</time>
      </trkpt>
      <trkpt lat="46.09959" lon="-1.10881">
        <ele>11</ele>
        <time>2015-02-09T08:31:06.000Z</time>
      </trkpt>
      <trkpt lat="46.09948" lon="-1.10867">
        <ele>11</ele>
        <time>2015-02-09T08:31:16.000Z</time>
      </trkpt>
      <trkpt lat="46.09936" lon="-1.10857">
        <ele>11</ele>
        <time>2015-02-09T08:31:26.000Z</time>
      </trkpt>
      <trkpt lat="46.09927" lon="-1.10848">
        <ele>11</ele>
        <time>2015-02-09T08:31:34.000Z</time>
      </trkpt>
      <trkpt lat="46.09919" lon="-1.10832">
        <ele>11</ele>
        <time>2015-02-09T08:31:43.000Z</time>
      </trkpt>
      <trkpt lat="46.09911" lon="-1.10817">
        <ele>11</ele>
        <time>2015-02-09T08:31:52.000Z</time>
      </trkpt>
      <trkpt lat="46.09907" lon="-1.10806">
        <ele>11</ele>
        <time>2015-02-09T08:31:58.000Z</time>
      </trkpt>
      <trkpt lat="46.09906" lon="-1.108">
        <ele>11</ele>
        <time>2015-02-09T08:32:02.000Z</time>
      </trkpt>
      <trkpt lat="46.09904" lon="-1.10793">
        <ele>11</ele>
        <time>2015-02-09T08:32:07.000Z</time>
      </trkpt>
      <trkpt lat="46.099" lon="-1.10777">
        <ele>11.60000038147</ele>
        <time>2015-02-09T08:32:17.000Z</time>
      </trkpt>
      <trkpt lat="46.0989" lon="-1.10757">
        <ele>12.60000038147</ele>
        <time>2015-02-09T08:32:28.000Z</time>
      </trkpt>
      <trkpt lat="46.09879" lon="-1.10738">
        <ele>13</ele>
        <time>2015-02-09T08:32:40.000Z</time>
      </trkpt>
      <trkpt lat="46.09868" lon="-1.10716">
        <ele>13</ele>
        <time>2015-02-09T08:32:53.000Z</time>
      </trkpt>
      <trkpt lat="46.09856" lon="-1.10694">
        <ele>14</ele>
        <time>2015-02-09T08:33:06.000Z</time>
      </trkpt>
      <trkpt lat="46.09846" lon="-1.10675">
        <ele>14.800000190735</ele>
        <time>2015-02-09T08:33:18.000Z</time>
      </trkpt>
      <trkpt lat="46.09838" lon="-1.1066">
        <ele>15</ele>
        <time>2015-02-09T08:33:27.000Z</time>
      </trkpt>
      <trkpt lat="46.09827" lon="-1.10639">
        <ele>15</ele>
        <time>2015-02-09T08:33:39.000Z</time>
      </trkpt>
      <trkpt lat="46.09816" lon="-1.10618">
        <ele>15</ele>
        <time>2015-02-09T08:33:51.000Z</time>
      </trkpt>
      <trkpt lat="46.09807" lon="-1.10602">
        <ele>15</ele>
        <time>2015-02-09T08:34:00.000Z</time>
      </trkpt>
      <trkpt lat="46.09796" lon="-1.10581">
        <ele>15</ele>
        <time>2015-02-09T08:34:13.000Z</time>
      </trkpt>
      <trkpt lat="46.09786" lon="-1.10563">
        <ele>15</ele>
        <time>2015-02-09T08:34:24.000Z</time>
      </trkpt>
      <trkpt lat="46.09775" lon="-1.10542">
        <ele>15</ele>
        <time>2015-02-09T08:34:36.000Z</time>
      </trkpt>
      <trkpt lat="46.09763" lon="-1.1052">
        <ele>15</ele>
        <time>2015-02-09T08:34:49.000Z</time>
      </trkpt>
      <trkpt lat="46.09753" lon="-1.10502">
        <ele>15</ele>
        <time>2015-02-09T08:35:01.000Z</time>
      </trkpt>
      <trkpt lat="46.0975" lon="-1.10495">
        <ele>15</ele>
        <time>2015-02-09T08:35:09.000Z</time>
      </trkpt>
      <trkpt lat="46.09739" lon="-1.10476">
        <ele>15</ele>
        <time>2015-02-09T08:35:20.000Z</time>
      </trkpt>
      <trkpt lat="46.0973" lon="-1.10458">
        <ele>15</ele>
        <time>2015-02-09T08:35:31.000Z</time>
      </trkpt>
      <trkpt lat="46.09718" lon="-1.10437">
        <ele>15</ele>
        <time>2015-02-09T08:35:44.000Z</time>
      </trkpt>
      <trkpt lat="46.09708" lon="-1.10418">
        <ele>15</ele>
        <time>2015-02-09T08:35:55.000Z</time>
      </trkpt>
      <trkpt lat="46.09698" lon="-1.10399">
        <ele>15</ele>
        <time>2015-02-09T08:36:06.000Z</time>
      </trkpt>
      <trkpt lat="46.09686" lon="-1.10378">
        <ele>15</ele>
        <time>2015-02-09T08:36:18.000Z</time>
      </trkpt>
      <trkpt lat="46.09677" lon="-1.10362">
        <ele>15</ele>
        <time>2015-02-09T08:36:28.000Z</time>
      </trkpt>
      <trkpt lat="46.09668" lon="-1.10343">
        <ele>15</ele>
        <time>2015-02-09T08:36:39.000Z</time>
      </trkpt>
      <trkpt lat="46.09645" lon="-1.10311">
        <ele>15</ele>
        <time>2015-02-09T08:37:01.000Z</time>
      </trkpt>
      <trkpt lat="46.09636" lon="-1.10303">
        <ele>15</ele>
        <time>2015-02-09T08:37:09.000Z</time>
      </trkpt>
      <trkpt lat="46.09621" lon="-1.10292">
        <ele>15</ele>
        <time>2015-02-09T08:37:20.000Z</time>
      </trkpt>
      <trkpt lat="46.09607" lon="-1.10282">
        <ele>15</ele>
        <time>2015-02-09T08:37:31.000Z</time>
      </trkpt>
      <trkpt lat="46.09597" lon="-1.10274">
        <ele>15</ele>
        <time>2015-02-09T08:37:39.000Z</time>
      </trkpt>
      <trkpt lat="46.09587" lon="-1.10262">
        <ele>15</ele>
        <time>2015-02-09T08:37:48.000Z</time>
      </trkpt>
      <trkpt lat="46.09578" lon="-1.10247">
        <ele>15</ele>
        <time>2015-02-09T08:37:58.000Z</time>
      </trkpt>
      <trkpt lat="46.0957" lon="-1.10231">
        <ele>15</ele>
        <time>2015-02-09T08:38:07.000Z</time>
      </trkpt>
      <trkpt lat="46.09563" lon="-1.10219">
        <ele>15</ele>
        <time>2015-02-09T08:38:16.000Z</time>
      </trkpt>
      <trkpt lat="46.09556" lon="-1.10207">
        <ele>15</ele>
        <time>2015-02-09T08:38:24.000Z</time>
      </trkpt>
      <trkpt lat="46.09547" lon="-1.10193">
        <ele>15</ele>
        <time>2015-02-09T08:38:33.000Z</time>
      </trkpt>
      <trkpt lat="46.09535" lon="-1.10175">
        <ele>15</ele>
        <time>2015-02-09T08:38:44.000Z</time>
      </trkpt>
      <trkpt lat="46.09524" lon="-1.10155">
        <ele>15</ele>
        <time>2015-02-09T08:38:56.000Z</time>
      </trkpt>
      <trkpt lat="46.09514" lon="-1.1014">
        <ele>15</ele>
        <time>2015-02-09T08:39:06.000Z</time>
      </trkpt>
      <trkpt lat="46.09505" lon="-1.10134">
        <ele>15</ele>
        <time>2015-02-09T08:39:15.000Z</time>
      </trkpt>
      <trkpt lat="46.09494" lon="-1.10131">
        <ele>13.800000190735</ele>
        <time>2015-02-09T08:39:25.000Z</time>
      </trkpt>
      <trkpt lat="46.09489" lon="-1.1013">
        <ele>13.60000038147</ele>
        <time>2015-02-09T08:39:29.000Z</time>
      </trkpt>
      <trkpt lat="46.09482" lon="-1.10125">
        <ele>13.199999809265</ele>
        <time>2015-02-09T08:39:38.000Z</time>
      </trkpt>
      <trkpt lat="46.09479" lon="-1.10124">
        <ele>13.199999809265</ele>
        <time>2015-02-09T08:39:45.000Z</time>
      </trkpt>
      <trkpt lat="46.09477" lon="-1.10121">
        <ele>13</ele>
        <time>2015-02-09T08:40:23.000Z</time>
      </trkpt>
      <trkpt lat="46.09473" lon="-1.10118">
        <ele>13</ele>
        <time>2015-02-09T08:40:30.000Z</time>
      </trkpt>
      <trkpt lat="46.09465" lon="-1.10112">
        <ele>13</ele>
        <time>2015-02-09T08:40:38.000Z</time>
      </trkpt>
      <trkpt lat="46.09458" lon="-1.10106">
        <ele>12</ele>
        <time>2015-02-09T08:40:47.000Z</time>
      </trkpt>
      <trkpt lat="46.09456" lon="-1.10104">
        <ele>11.60000038147</ele>
        <time>2015-02-09T08:40:52.000Z</time>
      </trkpt>
      <trkpt lat="46.09451" lon="-1.10098">
        <ele>11.199999809265</ele>
        <time>2015-02-09T08:41:00.000Z</time>
      </trkpt>
      <trkpt lat="46.09445" lon="-1.10095">
        <ele>11.199999809265</ele>
        <time>2015-02-09T08:41:06.000Z</time>
      </trkpt>
      <trkpt lat="46.09437" lon="-1.10093">
        <ele>11</ele>
        <time>2015-02-09T08:41:15.000Z</time>
      </trkpt>
      <trkpt lat="46.09432" lon="-1.10087">
        <ele>11</ele>
        <time>2015-02-09T08:41:23.000Z</time>
      </trkpt>
      <trkpt lat="46.0942" lon="-1.1008">
        <ele>11</ele>
        <time>2015-02-09T08:41:35.000Z</time>
      </trkpt>
      <trkpt lat="46.09412" lon="-1.10077">
        <ele>11</ele>
        <time>2015-02-09T08:41:43.000Z</time>
      </trkpt>
      <trkpt lat="46.09401" lon="-1.10072">
        <ele>9.8000001907349</ele>
        <time>2015-02-09T08:41:53.000Z</time>
      </trkpt>
      <trkpt lat="46.09388" lon="-1.10066">
        <ele>9.1999998092651</ele>
        <time>2015-02-09T08:42:04.000Z</time>
      </trkpt>
      <trkpt lat="46.09374" lon="-1.1006">
        <ele>9</ele>
        <time>2015-02-09T08:42:16.000Z</time>
      </trkpt>
      <trkpt lat="46.09359" lon="-1.10054">
        <ele>9</ele>
        <time>2015-02-09T08:42:28.000Z</time>
      </trkpt>
      <trkpt lat="46.09347" lon="-1.10048">
        <ele>9</ele>
        <time>2015-02-09T08:42:38.000Z</time>
      </trkpt>
      <trkpt lat="46.09332" lon="-1.10041">
        <ele>9</ele>
        <time>2015-02-09T08:42:51.000Z</time>
      </trkpt>
      <trkpt lat="46.09318" lon="-1.10035">
        <ele>9</ele>
        <time>2015-02-09T08:43:02.000Z</time>
      </trkpt>
      <trkpt lat="46.09303" lon="-1.10028">
        <ele>9</ele>
        <time>2015-02-09T08:43:14.000Z</time>
      </trkpt>
      <trkpt lat="46.09292" lon="-1.10023">
        <ele>9</ele>
        <time>2015-02-09T08:43:23.000Z</time>
      </trkpt>
      <trkpt lat="46.09275" lon="-1.10017">
        <ele>9</ele>
        <time>2015-02-09T08:43:36.000Z</time>
      </trkpt>
      <trkpt lat="46.09258" lon="-1.1001">
        <ele>9</ele>
        <time>2015-02-09T08:43:50.000Z</time>
      </trkpt>
      <trkpt lat="46.09246" lon="-1.10005">
        <ele>9</ele>
        <time>2015-02-09T08:44:00.000Z</time>
      </trkpt>
      <trkpt lat="46.09234" lon="-1.10001">
        <ele>9</ele>
        <time>2015-02-09T08:44:10.000Z</time>
      </trkpt>
      <trkpt lat="46.09219" lon="-1.09994">
        <ele>9</ele>
        <time>2015-02-09T08:44:22.000Z</time>
      </trkpt>
      <trkpt lat="46.092" lon="-1.09986">
        <ele>9</ele>
        <time>2015-02-09T08:44:36.000Z</time>
      </trkpt>
      <trkpt lat="46.09183" lon="-1.09979">
        <ele>9</ele>
        <time>2015-02-09T08:44:50.000Z</time>
      </trkpt>
      <trkpt lat="46.09168" lon="-1.09972">
        <ele>9</ele>
        <time>2015-02-09T08:45:01.000Z</time>
      </trkpt>
      <trkpt lat="46.09152" lon="-1.09966">
        <ele>9</ele>
        <time>2015-02-09T08:45:13.000Z</time>
      </trkpt>
      <trkpt lat="46.09137" lon="-1.09959">
        <ele>9</ele>
        <time>2015-02-09T08:45:25.000Z</time>
      </trkpt>
      <trkpt lat="46.09118" lon="-1.09951">
        <ele>8</ele>
        <time>2015-02-09T08:45:39.000Z</time>
      </trkpt>
      <trkpt lat="46.09102" lon="-1.09945">
        <ele>7.1999998092651</ele>
        <time>2015-02-09T08:45:52.000Z</time>
      </trkpt>
      <trkpt lat="46.09088" lon="-1.09939">
        <ele>7</ele>
        <time>2015-02-09T08:46:03.000Z</time>
      </trkpt>
      <trkpt lat="46.09072" lon="-1.09932">
        <ele>7</ele>
        <time>2015-02-09T08:46:16.000Z</time>
      </trkpt>
      <trkpt lat="46.09058" lon="-1.09926">
        <ele>7</ele>
        <time>2015-02-09T08:46:27.000Z</time>
      </trkpt>
      <trkpt lat="46.09042" lon="-1.09919">
        <ele>7</ele>
        <time>2015-02-09T08:46:40.000Z</time>
      </trkpt>
      <trkpt lat="46.09027" lon="-1.09914">
        <ele>7</ele>
        <time>2015-02-09T08:46:52.000Z</time>
      </trkpt>
      <trkpt lat="46.09015" lon="-1.09908">
        <ele>7</ele>
        <time>2015-02-09T08:47:02.000Z</time>
      </trkpt>
      <trkpt lat="46.09" lon="-1.09902">
        <ele>7</ele>
        <time>2015-02-09T08:47:14.000Z</time>
      </trkpt>
      <trkpt lat="46.08982" lon="-1.09895">
        <ele>7</ele>
        <time>2015-02-09T08:47:28.000Z</time>
      </trkpt>
      <trkpt lat="46.08965" lon="-1.0989">
        <ele>7</ele>
        <time>2015-02-09T08:47:41.000Z</time>
      </trkpt>
      <trkpt lat="46.08951" lon="-1.09885">
        <ele>7</ele>
        <time>2015-02-09T08:47:52.000Z</time>
      </trkpt>
      <trkpt lat="46.08938" lon="-1.0988">
        <ele>7</ele>
        <time>2015-02-09T08:48:03.000Z</time>
      </trkpt>
      <trkpt lat="46.08924" lon="-1.09875">
        <ele>7</ele>
        <time>2015-02-09T08:48:15.000Z</time>
      </trkpt>
      <trkpt lat="46.08906" lon="-1.09868">
        <ele>7</ele>
        <time>2015-02-09T08:48:29.000Z</time>
      </trkpt>
      <trkpt lat="46.08893" lon="-1.09864">
        <ele>7</ele>
        <time>2015-02-09T08:48:39.000Z</time>
      </trkpt>
      <trkpt lat="46.0888" lon="-1.0986">
        <ele>7</ele>
        <time>2015-02-09T08:48:49.000Z</time>
      </trkpt>
      <trkpt lat="46.08865" lon="-1.09855">
        <ele>5.8000001907349</ele>
        <time>2015-02-09T08:49:01.000Z</time>
      </trkpt>
      <trkpt lat="46.08851" lon="-1.09852">
        <ele>5.1999998092651</ele>
        <time>2015-02-09T08:49:12.000Z</time>
      </trkpt>
      <trkpt lat="46.08836" lon="-1.09847">
        <ele>5</ele>
        <time>2015-02-09T08:49:23.000Z</time>
      </trkpt>
      <trkpt lat="46.08825" lon="-1.09844">
        <ele>5</ele>
        <time>2015-02-09T08:49:32.000Z</time>
      </trkpt>
      <trkpt lat="46.08808" lon="-1.09838">
        <ele>5</ele>
        <time>2015-02-09T08:49:44.000Z</time>
      </trkpt>
      <trkpt lat="46.0879" lon="-1.09833">
        <ele>5</ele>
        <time>2015-02-09T08:49:57.000Z</time>
      </trkpt>
      <trkpt lat="46.08775" lon="-1.09828">
        <ele>5</ele>
        <time>2015-02-09T08:50:08.000Z</time>
      </trkpt>
      <trkpt lat="46.08759" lon="-1.09824">
        <ele>5</ele>
        <time>2015-02-09T08:50:20.000Z</time>
      </trkpt>
      <trkpt lat="46.08744" lon="-1.0982">
        <ele>5</ele>
        <time>2015-02-09T08:50:31.000Z</time>
      </trkpt>
      <trkpt lat="46.08727" lon="-1.09815">
        <ele>5</ele>
        <time>2015-02-09T08:50:43.000Z</time>
      </trkpt>
      <trkpt lat="46.08711" lon="-1.09811">
        <ele>5</ele>
        <time>2015-02-09T08:50:55.000Z</time>
      </trkpt>
      <trkpt lat="46.08696" lon="-1.09807">
        <ele>5</ele>
        <time>2015-02-09T08:51:06.000Z</time>
      </trkpt>
      <trkpt lat="46.08685" lon="-1.09804">
        <ele>5</ele>
        <time>2015-02-09T08:51:14.000Z</time>
      </trkpt>
      <trkpt lat="46.0867" lon="-1.09799">
        <ele>5</ele>
        <time>2015-02-09T08:51:25.000Z</time>
      </trkpt>
      <trkpt lat="46.08652" lon="-1.09794">
        <ele>5</ele>
        <time>2015-02-09T08:51:38.000Z</time>
      </trkpt>
      <trkpt lat="46.08636" lon="-1.0979">
        <ele>5</ele>
        <time>2015-02-09T08:51:50.000Z</time>
      </trkpt>
      <trkpt lat="46.0862" lon="-1.09786">
        <ele>5</ele>
        <time>2015-02-09T08:52:02.000Z</time>
      </trkpt>
      <trkpt lat="46.0861" lon="-1.09783">
        <ele>5</ele>
        <time>2015-02-09T08:52:10.000Z</time>
      </trkpt>
      <trkpt lat="46.08594" lon="-1.0978">
        <ele>5</ele>
        <time>2015-02-09T08:52:21.000Z</time>
      </trkpt>
      <trkpt lat="46.08575" lon="-1.09776">
        <ele>5</ele>
        <time>2015-02-09T08:52:35.000Z</time>
      </trkpt>
      <trkpt lat="46.08557" lon="-1.09771">
        <ele>4.4000000953674</ele>
        <time>2015-02-09T08:52:48.000Z</time>
      </trkpt>
      <trkpt lat="46.08547" lon="-1.09769">
        <ele>3.5999999046326</ele>
        <time>2015-02-09T08:52:56.000Z</time>
      </trkpt>
      <trkpt lat="46.0853" lon="-1.09764">
        <ele>3.2000000476837</ele>
        <time>2015-02-09T08:53:08.000Z</time>
      </trkpt>
      <trkpt lat="46.08511" lon="-1.09758">
        <ele>3</ele>
        <time>2015-02-09T08:53:22.000Z</time>
      </trkpt>
      <trkpt lat="46.08496" lon="-1.09754">
        <ele>3</ele>
        <time>2015-02-09T08:53:33.000Z</time>
      </trkpt>
      <trkpt lat="46.08478" lon="-1.09748">
        <ele>1.3999999761581</ele>
        <time>2015-02-09T08:53:46.000Z</time>
      </trkpt>
      <trkpt lat="46.08462" lon="-1.09742">
        <ele>1</ele>
        <time>2015-02-09T08:53:58.000Z</time>
      </trkpt>
      <trkpt lat="46.08452" lon="-1.09739">
        <ele>1</ele>
        <time>2015-02-09T08:54:05.000Z</time>
      </trkpt>
      <trkpt lat="46.0844" lon="-1.09735">
        <ele>1</ele>
        <time>2015-02-09T08:54:14.000Z</time>
      </trkpt>
      <trkpt lat="46.08423" lon="-1.09729">
        <ele>1</ele>
        <time>2015-02-09T08:54:26.000Z</time>
      </trkpt>
      <trkpt lat="46.08407" lon="-1.09724">
        <ele>1</ele>
        <time>2015-02-09T08:54:38.000Z</time>
      </trkpt>
      <trkpt lat="46.08393" lon="-1.0972">
        <ele>0.80000001192093</ele>
        <time>2015-02-09T08:54:48.000Z</time>
      </trkpt>
      <trkpt lat="46.08382" lon="-1.09717">
        <ele>-0.40000000596046</ele>
        <time>2015-02-09T08:54:57.000Z</time>
      </trkpt>
      <trkpt lat="46.08367" lon="-1.09713">
        <ele>-0.80000001192093</ele>
        <time>2015-02-09T08:55:08.000Z</time>
      </trkpt>
      <trkpt lat="46.08353" lon="-1.09717">
        <ele>-1</ele>
        <time>2015-02-09T08:55:18.000Z</time>
      </trkpt>
      <trkpt lat="46.08337" lon="-1.09711">
        <ele>-1</ele>
        <time>2015-02-09T08:55:29.000Z</time>
      </trkpt>
      <trkpt lat="46.08328" lon="-1.09697">
        <ele>-1</ele>
        <time>2015-02-09T08:55:38.000Z</time>
      </trkpt>
      <trkpt lat="46.0832" lon="-1.09685">
        <ele>-1</ele>
        <time>2015-02-09T08:55:46.000Z</time>
      </trkpt>
      <trkpt lat="46.0831" lon="-1.0968">
        <ele>-1</ele>
        <time>2015-02-09T08:55:54.000Z</time>
      </trkpt>
      <trkpt lat="46.08303" lon="-1.09674">
        <ele>-1</ele>
        <time>2015-02-09T08:56:00.000Z</time>
      </trkpt>
      <trkpt lat="46.083" lon="-1.09674">
        <ele>-1</ele>
        <time>2015-02-09T08:56:02.000Z</time>
      </trkpt>
      <trkpt lat="46.08289" lon="-1.09674">
        <ele>-1</ele>
        <time>2015-02-09T08:56:10.000Z</time>
      </trkpt>
      <trkpt lat="46.08268" lon="-1.09676">
        <ele>-1</ele>
        <time>2015-02-09T08:56:27.000Z</time>
      </trkpt>
      <trkpt lat="46.08266" lon="-1.09681">
        <ele>-1</ele>
        <time>2015-02-09T08:56:30.000Z</time>
      </trkpt>
      <trkpt lat="46.08254" lon="-1.09682">
        <ele>-1</ele>
        <time>2015-02-09T08:56:39.000Z</time>
      </trkpt>
      <trkpt lat="46.0824" lon="-1.09677">
        <ele>-1</ele>
        <time>2015-02-09T08:56:50.000Z</time>
      </trkpt>
      <trkpt lat="46.08228" lon="-1.09671">
        <ele>-1</ele>
        <time>2015-02-09T08:56:59.000Z</time>
      </trkpt>
      <trkpt lat="46.08215" lon="-1.09663">
        <ele>-1</ele>
        <time>2015-02-09T08:57:10.000Z</time>
      </trkpt>
      <trkpt lat="46.08205" lon="-1.09654">
        <ele>-1</ele>
        <time>2015-02-09T08:57:19.000Z</time>
      </trkpt>
      <trkpt lat="46.08192" lon="-1.09646">
        <ele>-1</ele>
        <time>2015-02-09T08:57:29.000Z</time>
      </trkpt>
      <trkpt lat="46.08177" lon="-1.09638">
        <ele>-1</ele>
        <time>2015-02-09T08:57:41.000Z</time>
      </trkpt>
      <trkpt lat="46.08163" lon="-1.09628">
        <ele>-1</ele>
        <time>2015-02-09T08:57:53.000Z</time>
      </trkpt>
      <trkpt lat="46.08149" lon="-1.09618">
        <ele>-1</ele>
        <time>2015-02-09T08:58:05.000Z</time>
      </trkpt>
      <trkpt lat="46.08134" lon="-1.0961">
        <ele>-1</ele>
        <time>2015-02-09T08:58:17.000Z</time>
      </trkpt>
      <trkpt lat="46.08122" lon="-1.09603">
        <ele>-1</ele>
        <time>2015-02-09T08:58:27.000Z</time>
      </trkpt>
      <trkpt lat="46.08117" lon="-1.09601">
        <ele>-1</ele>
        <time>2015-02-09T08:58:34.000Z</time>
      </trkpt>
      <trkpt lat="46.0811" lon="-1.09597">
        <ele>-1</ele>
        <time>2015-02-09T08:58:41.000Z</time>
      </trkpt>
      <trkpt lat="46.08095" lon="-1.0959">
        <ele>-1</ele>
        <time>2015-02-09T08:58:53.000Z</time>
      </trkpt>
      <trkpt lat="46.08082" lon="-1.09585">
        <ele>-1</ele>
        <time>2015-02-09T08:59:04.000Z</time>
      </trkpt>
      <trkpt lat="46.08064" lon="-1.09578">
        <ele>-1</ele>
        <time>2015-02-09T08:59:18.000Z</time>
      </trkpt>
      <trkpt lat="46.08048" lon="-1.09571">
        <ele>-1</ele>
        <time>2015-02-09T08:59:31.000Z</time>
      </trkpt>
      <trkpt lat="46.08037" lon="-1.09566">
        <ele>-1</ele>
        <time>2015-02-09T08:59:41.000Z</time>
      </trkpt>
      <trkpt lat="46.08023" lon="-1.0956">
        <ele>-1</ele>
        <time>2015-02-09T08:59:53.000Z</time>
      </trkpt>
      <trkpt lat="46.0801" lon="-1.09554">
        <ele>-1</ele>
        <time>2015-02-09T09:00:04.000Z</time>
      </trkpt>
      <trkpt lat="46.07998" lon="-1.09549">
        <ele>-1</ele>
        <time>2015-02-09T09:00:14.000Z</time>
      </trkpt>
      <trkpt lat="46.07983" lon="-1.09543">
        <ele>-1</ele>
        <time>2015-02-09T09:00:26.000Z</time>
      </trkpt>
      <trkpt lat="46.07971" lon="-1.09538">
        <ele>-1</ele>
        <time>2015-02-09T09:00:35.000Z</time>
      </trkpt>
      <trkpt lat="46.07957" lon="-1.09533">
        <ele>-1</ele>
        <time>2015-02-09T09:00:46.000Z</time>
      </trkpt>
      <trkpt lat="46.07941" lon="-1.09528">
        <ele>-1</ele>
        <time>2015-02-09T09:00:58.000Z</time>
      </trkpt>
      <trkpt lat="46.07923" lon="-1.09523">
        <ele>-1</ele>
        <time>2015-02-09T09:01:12.000Z</time>
      </trkpt>
      <trkpt lat="46.07907" lon="-1.09518">
        <ele>-1</ele>
        <time>2015-02-09T09:01:24.000Z</time>
      </trkpt>
      <trkpt lat="46.07893" lon="-1.09514">
        <ele>-1</ele>
        <time>2015-02-09T09:01:34.000Z</time>
      </trkpt>
      <trkpt lat="46.07879" lon="-1.0951">
        <ele>-1</ele>
        <time>2015-02-09T09:01:45.000Z</time>
      </trkpt>
      <trkpt lat="46.07865" lon="-1.09505">
        <ele>-1</ele>
        <time>2015-02-09T09:01:56.000Z</time>
      </trkpt>
      <trkpt lat="46.07849" lon="-1.09501">
        <ele>-1</ele>
        <time>2015-02-09T09:02:08.000Z</time>
      </trkpt>
      <trkpt lat="46.07817" lon="-1.09492">
        <ele>-1</ele>
        <time>2015-02-09T09:02:32.000Z</time>
      </trkpt>
      <trkpt lat="46.07801" lon="-1.09488">
        <ele>-1</ele>
        <time>2015-02-09T09:02:44.000Z</time>
      </trkpt>
      <trkpt lat="46.07785" lon="-1.09485">
        <ele>-1</ele>
        <time>2015-02-09T09:02:56.000Z</time>
      </trkpt>
      <trkpt lat="46.07769" lon="-1.09482">
        <ele>-1</ele>
        <time>2015-02-09T09:03:07.000Z</time>
      </trkpt>
      <trkpt lat="46.07751" lon="-1.09478">
        <ele>-1</ele>
        <time>2015-02-09T09:03:20.000Z</time>
      </trkpt>
      <trkpt lat="46.07733" lon="-1.09474">
        <ele>-1</ele>
        <time>2015-02-09T09:03:33.000Z</time>
      </trkpt>
      <trkpt lat="46.07717" lon="-1.09472">
        <ele>-1</ele>
        <time>2015-02-09T09:03:44.000Z</time>
      </trkpt>
      <trkpt lat="46.07699" lon="-1.09469">
        <ele>-1</ele>
        <time>2015-02-09T09:03:57.000Z</time>
      </trkpt>
      <trkpt lat="46.07681" lon="-1.09466">
        <ele>-1</ele>
        <time>2015-02-09T09:04:10.000Z</time>
      </trkpt>
      <trkpt lat="46.07665" lon="-1.09464">
        <ele>-0.20000000298023</ele>
        <time>2015-02-09T09:04:22.000Z</time>
      </trkpt>
      <trkpt lat="46.07646" lon="-1.09461">
        <ele>0.60000002384186</ele>
        <time>2015-02-09T09:04:35.000Z</time>
      </trkpt>
      <trkpt lat="46.0763" lon="-1.09458">
        <ele>0.80000001192093</ele>
        <time>2015-02-09T09:04:47.000Z</time>
      </trkpt>
      <trkpt lat="46.07613" lon="-1.09455">
        <ele>0.80000001192093</ele>
        <time>2015-02-09T09:04:59.000Z</time>
      </trkpt>
      <trkpt lat="46.07579" lon="-1.09448">
        <ele>1</ele>
        <time>2015-02-09T09:05:24.000Z</time>
      </trkpt>
      <trkpt lat="46.07562" lon="-1.09445">
        <ele>1</ele>
        <time>2015-02-09T09:05:36.000Z</time>
      </trkpt>
      <trkpt lat="46.07544" lon="-1.09442">
        <ele>1</ele>
        <time>2015-02-09T09:05:49.000Z</time>
      </trkpt>
      <trkpt lat="46.07528" lon="-1.09439">
        <ele>1</ele>
        <time>2015-02-09T09:06:01.000Z</time>
      </trkpt>
      <trkpt lat="46.07514" lon="-1.09438">
        <ele>1</ele>
        <time>2015-02-09T09:06:11.000Z</time>
      </trkpt>
      <trkpt lat="46.07514" lon="-1.09438">
        <ele>1</ele>
        <time>2015-02-09T09:06:12.000Z</time>
      </trkpt>
      <trkpt lat="46.07506" lon="-1.09436">
        <ele>1</ele>
        <time>2015-02-09T09:06:18.000Z</time>
      </trkpt>
      <trkpt lat="46.0749" lon="-1.09434">
        <ele>1</ele>
        <time>2015-02-09T09:06:30.000Z</time>
      </trkpt>
      <trkpt lat="46.07483" lon="-1.09433">
        <ele>1</ele>
        <time>2015-02-09T09:06:37.000Z</time>
      </trkpt>
      <trkpt lat="46.0747" lon="-1.09431">
        <ele>1</ele>
        <time>2015-02-09T09:06:46.000Z</time>
      </trkpt>
      <trkpt lat="46.07461" lon="-1.0943">
        <ele>1</ele>
        <time>2015-02-09T09:06:53.000Z</time>
      </trkpt>
      <trkpt lat="46.07445" lon="-1.09429">
        <ele>1</ele>
        <time>2015-02-09T09:07:04.000Z</time>
      </trkpt>
      <trkpt lat="46.07432" lon="-1.09428">
        <ele>1</ele>
        <time>2015-02-09T09:07:13.000Z</time>
      </trkpt>
      <trkpt lat="46.07414" lon="-1.09428">
        <ele>1</ele>
        <time>2015-02-09T09:07:26.000Z</time>
      </trkpt>
      <trkpt lat="46.07396" lon="-1.09426">
        <ele>1</ele>
        <time>2015-02-09T09:07:39.000Z</time>
      </trkpt>
      <trkpt lat="46.07377" lon="-1.09425">
        <ele>1</ele>
        <time>2015-02-09T09:07:52.000Z</time>
      </trkpt>
      <trkpt lat="46.07363" lon="-1.09424">
        <ele>1</ele>
        <time>2015-02-09T09:08:02.000Z</time>
      </trkpt>
      <trkpt lat="46.07347" lon="-1.09422">
        <ele>-0.20000000298023</ele>
        <time>2015-02-09T09:08:14.000Z</time>
      </trkpt>
      <trkpt lat="46.0733" lon="-1.09422">
        <ele>-0.80000001192093</ele>
        <time>2015-02-09T09:08:25.000Z</time>
      </trkpt>
      <trkpt lat="46.07314" lon="-1.09421">
        <ele>-1</ele>
        <time>2015-02-09T09:08:37.000Z</time>
      </trkpt>
      <trkpt lat="46.07298" lon="-1.09421">
        <ele>-1</ele>
        <time>2015-02-09T09:08:48.000Z</time>
      </trkpt>
      <trkpt lat="46.07281" lon="-1.09419">
        <ele>-1</ele>
        <time>2015-02-09T09:09:00.000Z</time>
      </trkpt>
      <trkpt lat="46.07263" lon="-1.09418">
        <ele>-1</ele>
        <time>2015-02-09T09:09:13.000Z</time>
      </trkpt>
      <trkpt lat="46.07246" lon="-1.09413">
        <ele>-1</ele>
        <time>2015-02-09T09:09:25.000Z</time>
      </trkpt>
      <trkpt lat="46.07233" lon="-1.09404">
        <ele>-1</ele>
        <time>2015-02-09T09:09:36.000Z</time>
      </trkpt>
      <trkpt lat="46.07228" lon="-1.09397">
        <ele>-1</ele>
        <time>2015-02-09T09:09:43.000Z</time>
      </trkpt>
      <trkpt lat="46.07225" lon="-1.09392">
        <ele>-1</ele>
        <time>2015-02-09T09:09:46.000Z</time>
      </trkpt>
      <trkpt lat="46.07219" lon="-1.09391">
        <ele>-1</ele>
        <time>2015-02-09T09:09:51.000Z</time>
      </trkpt>
      <trkpt lat="46.07208" lon="-1.09392">
        <ele>-1</ele>
        <time>2015-02-09T09:09:59.000Z</time>
      </trkpt>
      <trkpt lat="46.0719" lon="-1.09391">
        <ele>-1</ele>
        <time>2015-02-09T09:10:12.000Z</time>
      </trkpt>
      <trkpt lat="46.07174" lon="-1.09391">
        <ele>-1</ele>
        <time>2015-02-09T09:10:23.000Z</time>
      </trkpt>
      <trkpt lat="46.07156" lon="-1.09391">
        <ele>-1</ele>
        <time>2015-02-09T09:10:36.000Z</time>
      </trkpt>
      <trkpt lat="46.07138" lon="-1.0939">
        <ele>-1</ele>
        <time>2015-02-09T09:10:49.000Z</time>
      </trkpt>
      <trkpt lat="46.07135" lon="-1.0939">
        <ele>-1</ele>
        <time>2015-02-09T09:10:51.000Z</time>
      </trkpt>
      <trkpt lat="46.07121" lon="-1.0939">
        <ele>-1</ele>
        <time>2015-02-09T09:11:01.000Z</time>
      </trkpt>
      <trkpt lat="46.07103" lon="-1.09391">
        <ele>-1</ele>
        <time>2015-02-09T09:11:14.000Z</time>
      </trkpt>
      <trkpt lat="46.0708" lon="-1.09391">
        <ele>-1</ele>
        <time>2015-02-09T09:11:31.000Z</time>
      </trkpt>
      <trkpt lat="46.07066" lon="-1.0939">
        <ele>-1</ele>
        <time>2015-02-09T09:11:41.000Z</time>
      </trkpt>
      <trkpt lat="46.07049" lon="-1.0939">
        <ele>-1</ele>
        <time>2015-02-09T09:11:53.000Z</time>
      </trkpt>
      <trkpt lat="46.07031" lon="-1.09391">
        <ele>-2.4000000953674</ele>
        <time>2015-02-09T09:12:06.000Z</time>
      </trkpt>
      <trkpt lat="46.06996" lon="-1.09391">
        <ele>-3</ele>
        <time>2015-02-09T09:12:31.000Z</time>
      </trkpt>
      <trkpt lat="46.06982" lon="-1.09392">
        <ele>-3</ele>
        <time>2015-02-09T09:12:42.000Z</time>
      </trkpt>
      <trkpt lat="46.06963" lon="-1.09391">
        <ele>-3.2000000476837</ele>
        <time>2015-02-09T09:12:55.000Z</time>
      </trkpt>
      <trkpt lat="46.06947" lon="-1.09392">
        <ele>-3.2000000476837</ele>
        <time>2015-02-09T09:13:07.000Z</time>
      </trkpt>
      <trkpt lat="46.06929" lon="-1.09392">
        <ele>-1.7999999523163</ele>
        <time>2015-02-09T09:13:20.000Z</time>
      </trkpt>
      <trkpt lat="46.0691" lon="-1.09393">
        <ele>-1.2000000476837</ele>
        <time>2015-02-09T09:13:33.000Z</time>
      </trkpt>
      <trkpt lat="46.06896" lon="-1.09393">
        <ele>-1.2000000476837</ele>
        <time>2015-02-09T09:13:43.000Z</time>
      </trkpt>
      <trkpt lat="46.06881" lon="-1.09394">
        <ele>-1.2000000476837</ele>
        <time>2015-02-09T09:13:54.000Z</time>
      </trkpt>
      <trkpt lat="46.06867" lon="-1.09394">
        <ele>-1.2000000476837</ele>
        <time>2015-02-09T09:14:05.000Z</time>
      </trkpt>
      <trkpt lat="46.06848" lon="-1.09396">
        <ele>-0.20000000298023</ele>
        <time>2015-02-09T09:14:18.000Z</time>
      </trkpt>
      <trkpt lat="46.06829" lon="-1.09398">
        <ele>0.60000002384186</ele>
        <time>2015-02-09T09:14:32.000Z</time>
      </trkpt>
      <trkpt lat="46.06813" lon="-1.09399">
        <ele>0.80000001192093</ele>
        <time>2015-02-09T09:14:43.000Z</time>
      </trkpt>
      <trkpt lat="46.06794" lon="-1.09401">
        <ele>0.80000001192093</ele>
        <time>2015-02-09T09:14:56.000Z</time>
      </trkpt>
      <trkpt lat="46.06776" lon="-1.09402">
        <ele>1</ele>
        <time>2015-02-09T09:15:08.000Z</time>
      </trkpt>
      <trkpt lat="46.06741" lon="-1.09404">
        <ele>1</ele>
        <time>2015-02-09T09:15:32.000Z</time>
      </trkpt>
      <trkpt lat="46.06723" lon="-1.09406">
        <ele>1</ele>
        <time>2015-02-09T09:15:44.000Z</time>
      </trkpt>
      <trkpt lat="46.06704" lon="-1.09407">
        <ele>1</ele>
        <time>2015-02-09T09:15:57.000Z</time>
      </trkpt>
      <trkpt lat="46.06686" lon="-1.09409">
        <ele>1</ele>
        <time>2015-02-09T09:16:10.000Z</time>
      </trkpt>
      <trkpt lat="46.06669" lon="-1.0941">
        <ele>1</ele>
        <time>2015-02-09T09:16:22.000Z</time>
      </trkpt>
      <trkpt lat="46.0665" lon="-1.09412">
        <ele>1</ele>
        <time>2015-02-09T09:16:35.000Z</time>
      </trkpt>
      <trkpt lat="46.06637" lon="-1.09414">
        <ele>1</ele>
        <time>2015-02-09T09:16:44.000Z</time>
      </trkpt>
      <trkpt lat="46.06619" lon="-1.09416">
        <ele>1</ele>
        <time>2015-02-09T09:16:57.000Z</time>
      </trkpt>
      <trkpt lat="46.06601" lon="-1.09419">
        <ele>1</ele>
        <time>2015-02-09T09:17:10.000Z</time>
      </trkpt>
      <trkpt lat="46.06583" lon="-1.09421">
        <ele>1</ele>
        <time>2015-02-09T09:17:22.000Z</time>
      </trkpt>
      <trkpt lat="46.06564" lon="-1.09424">
        <ele>1</ele>
        <time>2015-02-09T09:17:35.000Z</time>
      </trkpt>
      <trkpt lat="46.06546" lon="-1.09426">
        <ele>1</ele>
        <time>2015-02-09T09:17:47.000Z</time>
      </trkpt>
      <trkpt lat="46.06529" lon="-1.09429">
        <ele>1</ele>
        <time>2015-02-09T09:17:59.000Z</time>
      </trkpt>
      <trkpt lat="46.06512" lon="-1.09432">
        <ele>-0.40000000596046</ele>
        <time>2015-02-09T09:18:12.000Z</time>
      </trkpt>
      <trkpt lat="46.06475" lon="-1.09437">
        <ele>-2.2000000476837</ele>
        <time>2015-02-09T09:18:37.000Z</time>
      </trkpt>
      <trkpt lat="46.06456" lon="-1.0944">
        <ele>-3</ele>
        <time>2015-02-09T09:18:50.000Z</time>
      </trkpt>
      <trkpt lat="46.0644" lon="-1.09442">
        <ele>-3</ele>
        <time>2015-02-09T09:19:01.000Z</time>
      </trkpt>
      <trkpt lat="46.06421" lon="-1.09445">
        <ele>-4.5999999046326</ele>
        <time>2015-02-09T09:19:14.000Z</time>
      </trkpt>
      <trkpt lat="46.06402" lon="-1.09448">
        <ele>-5</ele>
        <time>2015-02-09T09:19:27.000Z</time>
      </trkpt>
      <trkpt lat="46.06384" lon="-1.09454">
        <ele>-5.5999999046326</ele>
        <time>2015-02-09T09:19:39.000Z</time>
      </trkpt>
      <trkpt lat="46.06367" lon="-1.09463">
        <ele>-6.8000001907349</ele>
        <time>2015-02-09T09:19:52.000Z</time>
      </trkpt>
      <trkpt lat="46.06349" lon="-1.09471">
        <ele>-7.1999998092651</ele>
        <time>2015-02-09T09:20:05.000Z</time>
      </trkpt>
      <trkpt lat="46.06331" lon="-1.0948">
        <ele>-7.1999998092651</ele>
        <time>2015-02-09T09:20:18.000Z</time>
      </trkpt>
      <trkpt lat="46.06314" lon="-1.09489">
        <ele>-7.1999998092651</ele>
        <time>2015-02-09T09:20:32.000Z</time>
      </trkpt>
      <trkpt lat="46.06297" lon="-1.09499">
        <ele>-7.1999998092651</ele>
        <time>2015-02-09T09:20:44.000Z</time>
      </trkpt>
      <trkpt lat="46.06284" lon="-1.09509">
        <ele>-7.1999998092651</ele>
        <time>2015-02-09T09:20:55.000Z</time>
      </trkpt>
      <trkpt lat="46.0627" lon="-1.0952">
        <ele>-6.5999999046326</ele>
        <time>2015-02-09T09:21:07.000Z</time>
      </trkpt>
      <trkpt lat="46.06256" lon="-1.09527">
        <ele>-5.5999999046326</ele>
        <time>2015-02-09T09:21:20.000Z</time>
      </trkpt>
      <trkpt lat="46.06251" lon="-1.09527">
        <ele>-5.4000000953674</ele>
        <time>2015-02-09T09:21:29.000Z</time>
      </trkpt>
      <trkpt lat="46.0625" lon="-1.09526">
        <ele>-5</ele>
        <time>2015-02-09T09:21:33.000Z</time>
      </trkpt>
      <trkpt lat="46.06251" lon="-1.09522">
        <ele>7</ele>
        <time>2015-02-09T09:28:43.000Z</time>
      </trkpt>
      <trkpt lat="46.06246" lon="-1.09513">
        <ele>7</ele>
        <time>2015-02-09T09:28:51.000Z</time>
      </trkpt>
      <trkpt lat="46.06242" lon="-1.09504">
        <ele>7</ele>
        <time>2015-02-09T09:29:00.000Z</time>
      </trkpt>
      <trkpt lat="46.06237" lon="-1.09496">
        <ele>7</ele>
        <time>2015-02-09T09:29:07.000Z</time>
      </trkpt>
      <trkpt lat="46.06232" lon="-1.09489">
        <ele>7.5999999046326</ele>
        <time>2015-02-09T09:29:14.000Z</time>
      </trkpt>
      <trkpt lat="46.06224" lon="-1.09483">
        <ele>8.3999996185303</ele>
        <time>2015-02-09T09:29:23.000Z</time>
      </trkpt>
      <trkpt lat="46.06219" lon="-1.09475">
        <ele>8.8000001907349</ele>
        <time>2015-02-09T09:29:30.000Z</time>
      </trkpt>
      <trkpt lat="46.06211" lon="-1.09471">
        <ele>8.8000001907349</ele>
        <time>2015-02-09T09:29:37.000Z</time>
      </trkpt>
      <trkpt lat="46.06208" lon="-1.09459">
        <ele>9</ele>
        <time>2015-02-09T09:29:44.000Z</time>
      </trkpt>
      <trkpt lat="46.06207" lon="-1.09443">
        <ele>9</ele>
        <time>2015-02-09T09:29:53.000Z</time>
      </trkpt>
      <trkpt lat="46.06208" lon="-1.09428">
        <ele>9</ele>
        <time>2015-02-09T09:30:01.000Z</time>
      </trkpt>
      <trkpt lat="46.06208" lon="-1.09417">
        <ele>9</ele>
        <time>2015-02-09T09:30:07.000Z</time>
      </trkpt>
      <trkpt lat="46.06209" lon="-1.094">
        <ele>9</ele>
        <time>2015-02-09T09:30:16.000Z</time>
      </trkpt>
      <trkpt lat="46.06211" lon="-1.09385">
        <ele>9</ele>
        <time>2015-02-09T09:30:25.000Z</time>
      </trkpt>
      <trkpt lat="46.06211" lon="-1.09365">
        <ele>9</ele>
        <time>2015-02-09T09:30:37.000Z</time>
      </trkpt>
      <trkpt lat="46.0621" lon="-1.09346">
        <ele>9</ele>
        <time>2015-02-09T09:30:48.000Z</time>
      </trkpt>
      <trkpt lat="46.06212" lon="-1.09327">
        <ele>9</ele>
        <time>2015-02-09T09:30:57.000Z</time>
      </trkpt>
      <trkpt lat="46.06215" lon="-1.09304">
        <ele>9</ele>
        <time>2015-02-09T09:31:11.000Z</time>
      </trkpt>
      <trkpt lat="46.06218" lon="-1.09292">
        <ele>9</ele>
        <time>2015-02-09T09:31:21.000Z</time>
      </trkpt>
      <trkpt lat="46.06222" lon="-1.09287">
        <ele>9</ele>
        <time>2015-02-09T09:31:29.000Z</time>
      </trkpt>
      <trkpt lat="46.06224" lon="-1.09287">
        <ele>9</ele>
        <time>2015-02-09T09:31:36.000Z</time>
      </trkpt>
      <trkpt lat="46.06226" lon="-1.09286">
        <ele>9</ele>
        <time>2015-02-09T09:31:43.000Z</time>
      </trkpt>
      <trkpt lat="46.06231" lon="-1.09294">
        <ele>9</ele>
        <time>2015-02-09T09:31:52.000Z</time>
      </trkpt>
      <trkpt lat="46.06241" lon="-1.09297">
        <ele>9</ele>
        <time>2015-02-09T09:32:01.000Z</time>
      </trkpt>
      <trkpt lat="46.06255" lon="-1.09297">
        <ele>9</ele>
        <time>2015-02-09T09:32:13.000Z</time>
      </trkpt>
      <trkpt lat="46.06269" lon="-1.09297">
        <ele>9</ele>
        <time>2015-02-09T09:32:24.000Z</time>
      </trkpt>
      <trkpt lat="46.06284" lon="-1.09297">
        <ele>9</ele>
        <time>2015-02-09T09:32:36.000Z</time>
      </trkpt>
      <trkpt lat="46.06296" lon="-1.09297">
        <ele>9</ele>
        <time>2015-02-09T09:32:45.000Z</time>
      </trkpt>
      <trkpt lat="46.06309" lon="-1.09298">
        <ele>10.199999809265</ele>
        <time>2015-02-09T09:32:54.000Z</time>
      </trkpt>
      <trkpt lat="46.06324" lon="-1.09298">
        <ele>10.800000190735</ele>
        <time>2015-02-09T09:33:06.000Z</time>
      </trkpt>
      <trkpt lat="46.06337" lon="-1.09297">
        <ele>11</ele>
        <time>2015-02-09T09:33:17.000Z</time>
      </trkpt>
      <trkpt lat="46.06353" lon="-1.09297">
        <ele>11</ele>
        <time>2015-02-09T09:33:29.000Z</time>
      </trkpt>
      <trkpt lat="46.06367" lon="-1.09298">
        <ele>11</ele>
        <time>2015-02-09T09:33:40.000Z</time>
      </trkpt>
      <trkpt lat="46.0638" lon="-1.09298">
        <ele>11</ele>
        <time>2015-02-09T09:33:50.000Z</time>
      </trkpt>
      <trkpt lat="46.06396" lon="-1.09298">
        <ele>11</ele>
        <time>2015-02-09T09:34:02.000Z</time>
      </trkpt>
      <trkpt lat="46.06412" lon="-1.09298">
        <ele>11</ele>
        <time>2015-02-09T09:34:14.000Z</time>
      </trkpt>
      <trkpt lat="46.06427" lon="-1.09297">
        <ele>11</ele>
        <time>2015-02-09T09:34:25.000Z</time>
      </trkpt>
      <trkpt lat="46.06437" lon="-1.09297">
        <ele>11</ele>
        <time>2015-02-09T09:34:33.000Z</time>
      </trkpt>
      <trkpt lat="46.06452" lon="-1.09296">
        <ele>11</ele>
        <time>2015-02-09T09:34:44.000Z</time>
      </trkpt>
      <trkpt lat="46.0647" lon="-1.09295">
        <ele>11</ele>
        <time>2015-02-09T09:34:58.000Z</time>
      </trkpt>
      <trkpt lat="46.06488" lon="-1.09294">
        <ele>11</ele>
        <time>2015-02-09T09:35:12.000Z</time>
      </trkpt>
      <trkpt lat="46.06507" lon="-1.09293">
        <ele>11</ele>
        <time>2015-02-09T09:35:26.000Z</time>
      </trkpt>
      <trkpt lat="46.06525" lon="-1.09291">
        <ele>11</ele>
        <time>2015-02-09T09:35:40.000Z</time>
      </trkpt>
      <trkpt lat="46.06543" lon="-1.0929">
        <ele>11</ele>
        <time>2015-02-09T09:35:54.000Z</time>
      </trkpt>
      <trkpt lat="46.0656" lon="-1.09289">
        <ele>11</ele>
        <time>2015-02-09T09:36:06.000Z</time>
      </trkpt>
      <trkpt lat="46.06574" lon="-1.09289">
        <ele>10</ele>
        <time>2015-02-09T09:36:17.000Z</time>
      </trkpt>
      <trkpt lat="46.0659" lon="-1.09289">
        <ele>9.3999996185303</ele>
        <time>2015-02-09T09:36:29.000Z</time>
      </trkpt>
      <trkpt lat="46.06607" lon="-1.0929">
        <ele>9</ele>
        <time>2015-02-09T09:36:43.000Z</time>
      </trkpt>
      <trkpt lat="46.06618" lon="-1.0929">
        <ele>9</ele>
        <time>2015-02-09T09:36:52.000Z</time>
      </trkpt>
      <trkpt lat="46.06635" lon="-1.09289">
        <ele>9.8000001907349</ele>
        <time>2015-02-09T09:37:06.000Z</time>
      </trkpt>
      <trkpt lat="46.06649" lon="-1.0929">
        <ele>10.60000038147</ele>
        <time>2015-02-09T09:37:17.000Z</time>
      </trkpt>
      <trkpt lat="46.06664" lon="-1.0929">
        <ele>11</ele>
        <time>2015-02-09T09:37:29.000Z</time>
      </trkpt>
      <trkpt lat="46.06677" lon="-1.09289">
        <ele>11</ele>
        <time>2015-02-09T09:37:39.000Z</time>
      </trkpt>
      <trkpt lat="46.06693" lon="-1.09289">
        <ele>11</ele>
        <time>2015-02-09T09:37:51.000Z</time>
      </trkpt>
      <trkpt lat="46.06704" lon="-1.09288">
        <ele>11</ele>
        <time>2015-02-09T09:38:00.000Z</time>
      </trkpt>
      <trkpt lat="46.0672" lon="-1.09287">
        <ele>11</ele>
        <time>2015-02-09T09:38:12.000Z</time>
      </trkpt>
      <trkpt lat="46.06739" lon="-1.09287">
        <ele>11</ele>
        <time>2015-02-09T09:38:27.000Z</time>
      </trkpt>
      <trkpt lat="46.06753" lon="-1.09287">
        <ele>10.39999961853</ele>
        <time>2015-02-09T09:38:38.000Z</time>
      </trkpt>
      <trkpt lat="46.06767" lon="-1.09288">
        <ele>9.3999996185303</ele>
        <time>2015-02-09T09:38:49.000Z</time>
      </trkpt>
      <trkpt lat="46.06778" lon="-1.09288">
        <ele>9.1999998092651</ele>
        <time>2015-02-09T09:38:58.000Z</time>
      </trkpt>
      <trkpt lat="46.06793" lon="-1.09288">
        <ele>9</ele>
        <time>2015-02-09T09:39:09.000Z</time>
      </trkpt>
      <trkpt lat="46.06807" lon="-1.09287">
        <ele>9</ele>
        <time>2015-02-09T09:39:20.000Z</time>
      </trkpt>
      <trkpt lat="46.0682" lon="-1.09286">
        <ele>9</ele>
        <time>2015-02-09T09:39:30.000Z</time>
      </trkpt>
      <trkpt lat="46.06835" lon="-1.09286">
        <ele>7.5999999046326</ele>
        <time>2015-02-09T09:39:42.000Z</time>
      </trkpt>
      <trkpt lat="46.06848" lon="-1.09287">
        <ele>7.1999998092651</ele>
        <time>2015-02-09T09:39:52.000Z</time>
      </trkpt>
      <trkpt lat="46.06857" lon="-1.09288">
        <ele>7</ele>
        <time>2015-02-09T09:39:59.000Z</time>
      </trkpt>
      <trkpt lat="46.06859" lon="-1.09287">
        <ele>7</ele>
        <time>2015-02-09T09:40:02.000Z</time>
      </trkpt>
      <trkpt lat="46.06868" lon="-1.09286">
        <ele>7</ele>
        <time>2015-02-09T09:40:11.000Z</time>
      </trkpt>
      <trkpt lat="46.06882" lon="-1.09286">
        <ele>7</ele>
        <time>2015-02-09T09:40:22.000Z</time>
      </trkpt>
      <trkpt lat="46.06896" lon="-1.09286">
        <ele>7</ele>
        <time>2015-02-09T09:40:33.000Z</time>
      </trkpt>
      <trkpt lat="46.06902" lon="-1.09284">
        <ele>7</ele>
        <time>2015-02-09T09:40:39.000Z</time>
      </trkpt>
      <trkpt lat="46.06903" lon="-1.09284">
        <ele>7</ele>
        <time>2015-02-09T09:40:44.000Z</time>
      </trkpt>
      <trkpt lat="46.06902" lon="-1.09282">
        <ele>7</ele>
        <time>2015-02-09T09:41:56.000Z</time>
      </trkpt>
      <trkpt lat="46.06908" lon="-1.09284">
        <ele>7</ele>
        <time>2015-02-09T09:42:06.000Z</time>
      </trkpt>
      <trkpt lat="46.06917" lon="-1.09283">
        <ele>7</ele>
        <time>2015-02-09T09:42:12.000Z</time>
      </trkpt>
      <trkpt lat="46.06935" lon="-1.09283">
        <ele>7</ele>
        <time>2015-02-09T09:42:23.000Z</time>
      </trkpt>
      <trkpt lat="46.06947" lon="-1.09282">
        <ele>7</ele>
        <time>2015-02-09T09:42:31.000Z</time>
      </trkpt>
      <trkpt lat="46.06959" lon="-1.09282">
        <ele>7</ele>
        <time>2015-02-09T09:42:39.000Z</time>
      </trkpt>
      <trkpt lat="46.06961" lon="-1.09282">
        <ele>7</ele>
        <time>2015-02-09T09:42:41.000Z</time>
      </trkpt>
      <trkpt lat="46.06973" lon="-1.09283">
        <ele>7</ele>
        <time>2015-02-09T09:42:51.000Z</time>
      </trkpt>
      <trkpt lat="46.06983" lon="-1.09288">
        <ele>7</ele>
        <time>2015-02-09T09:42:59.000Z</time>
      </trkpt>
      <trkpt lat="46.06991" lon="-1.09294">
        <ele>7</ele>
        <time>2015-02-09T09:43:06.000Z</time>
      </trkpt>
      <trkpt lat="46.07005" lon="-1.09296">
        <ele>7</ele>
        <time>2015-02-09T09:43:17.000Z</time>
      </trkpt>
      <trkpt lat="46.07019" lon="-1.09297">
        <ele>7</ele>
        <time>2015-02-09T09:43:28.000Z</time>
      </trkpt>
      <trkpt lat="46.07033" lon="-1.09299">
        <ele>7</ele>
        <time>2015-02-09T09:43:38.000Z</time>
      </trkpt>
      <trkpt lat="46.07048" lon="-1.093">
        <ele>7</ele>
        <time>2015-02-09T09:43:49.000Z</time>
      </trkpt>
      <trkpt lat="46.07061" lon="-1.09302">
        <ele>7</ele>
        <time>2015-02-09T09:43:58.000Z</time>
      </trkpt>
      <trkpt lat="46.07073" lon="-1.09302">
        <ele>7</ele>
        <time>2015-02-09T09:44:07.000Z</time>
      </trkpt>
      <trkpt lat="46.07085" lon="-1.09303">
        <ele>7</ele>
        <time>2015-02-09T09:44:16.000Z</time>
      </trkpt>
      <trkpt lat="46.071" lon="-1.09304">
        <ele>7</ele>
        <time>2015-02-09T09:44:27.000Z</time>
      </trkpt>
      <trkpt lat="46.07108" lon="-1.09305">
        <ele>7</ele>
        <time>2015-02-09T09:44:33.000Z</time>
      </trkpt>
      <trkpt lat="46.07121" lon="-1.09307">
        <ele>7</ele>
        <time>2015-02-09T09:44:43.000Z</time>
      </trkpt>
      <trkpt lat="46.07135" lon="-1.09308">
        <ele>7</ele>
        <time>2015-02-09T09:44:54.000Z</time>
      </trkpt>
      <trkpt lat="46.0715" lon="-1.09309">
        <ele>7</ele>
        <time>2015-02-09T09:45:05.000Z</time>
      </trkpt>
      <trkpt lat="46.07164" lon="-1.09311">
        <ele>7</ele>
        <time>2015-02-09T09:45:16.000Z</time>
      </trkpt>
      <trkpt lat="46.07179" lon="-1.09313">
        <ele>7</ele>
        <time>2015-02-09T09:45:27.000Z</time>
      </trkpt>
      <trkpt lat="46.07192" lon="-1.09315">
        <ele>7</ele>
        <time>2015-02-09T09:45:37.000Z</time>
      </trkpt>
      <trkpt lat="46.07206" lon="-1.09317">
        <ele>7</ele>
        <time>2015-02-09T09:45:48.000Z</time>
      </trkpt>
      <trkpt lat="46.07222" lon="-1.09319">
        <ele>7</ele>
        <time>2015-02-09T09:46:00.000Z</time>
      </trkpt>
      <trkpt lat="46.07236" lon="-1.09322">
        <ele>7</ele>
        <time>2015-02-09T09:46:10.000Z</time>
      </trkpt>
      <trkpt lat="46.07255" lon="-1.09324">
        <ele>7</ele>
        <time>2015-02-09T09:46:24.000Z</time>
      </trkpt>
      <trkpt lat="46.07269" lon="-1.09325">
        <ele>7</ele>
        <time>2015-02-09T09:46:35.000Z</time>
      </trkpt>
      <trkpt lat="46.07285" lon="-1.09327">
        <ele>7</ele>
        <time>2015-02-09T09:46:46.000Z</time>
      </trkpt>
      <trkpt lat="46.07298" lon="-1.09329">
        <ele>7</ele>
        <time>2015-02-09T09:46:56.000Z</time>
      </trkpt>
      <trkpt lat="46.07313" lon="-1.0933">
        <ele>7</ele>
        <time>2015-02-09T09:47:07.000Z</time>
      </trkpt>
      <trkpt lat="46.07331" lon="-1.09333">
        <ele>7</ele>
        <time>2015-02-09T09:47:20.000Z</time>
      </trkpt>
      <trkpt lat="46.07347" lon="-1.09337">
        <ele>7</ele>
        <time>2015-02-09T09:47:32.000Z</time>
      </trkpt>
      <trkpt lat="46.07366" lon="-1.0934">
        <ele>7</ele>
        <time>2015-02-09T09:47:46.000Z</time>
      </trkpt>
      <trkpt lat="46.0738" lon="-1.09342">
        <ele>7</ele>
        <time>2015-02-09T09:47:57.000Z</time>
      </trkpt>
      <trkpt lat="46.07394" lon="-1.09345">
        <ele>7</ele>
        <time>2015-02-09T09:48:08.000Z</time>
      </trkpt>
      <trkpt lat="46.07406" lon="-1.09348">
        <ele>7</ele>
        <time>2015-02-09T09:48:18.000Z</time>
      </trkpt>
      <trkpt lat="46.0742" lon="-1.09351">
        <ele>7</ele>
        <time>2015-02-09T09:48:29.000Z</time>
      </trkpt>
      <trkpt lat="46.07436" lon="-1.09354">
        <ele>7</ele>
        <time>2015-02-09T09:48:41.000Z</time>
      </trkpt>
      <trkpt lat="46.07449" lon="-1.09356">
        <ele>6.5999999046326</ele>
        <time>2015-02-09T09:48:51.000Z</time>
      </trkpt>
      <trkpt lat="46.07466" lon="-1.09359">
        <ele>5.4000000953674</ele>
        <time>2015-02-09T09:49:04.000Z</time>
      </trkpt>
      <trkpt lat="46.07481" lon="-1.09362">
        <ele>5</ele>
        <time>2015-02-09T09:49:15.000Z</time>
      </trkpt>
      <trkpt lat="46.07498" lon="-1.09365">
        <ele>5</ele>
        <time>2015-02-09T09:49:27.000Z</time>
      </trkpt>
      <trkpt lat="46.07512" lon="-1.09366">
        <ele>5</ele>
        <time>2015-02-09T09:49:38.000Z</time>
      </trkpt>
      <trkpt lat="46.07524" lon="-1.09367">
        <ele>5</ele>
        <time>2015-02-09T09:49:47.000Z</time>
      </trkpt>
      <trkpt lat="46.07536" lon="-1.0937">
        <ele>5</ele>
        <time>2015-02-09T09:49:56.000Z</time>
      </trkpt>
      <trkpt lat="46.07548" lon="-1.09373">
        <ele>5</ele>
        <time>2015-02-09T09:50:05.000Z</time>
      </trkpt>
      <trkpt lat="46.07566" lon="-1.09378">
        <ele>5</ele>
        <time>2015-02-09T09:50:19.000Z</time>
      </trkpt>
      <trkpt lat="46.07582" lon="-1.09383">
        <ele>5</ele>
        <time>2015-02-09T09:50:31.000Z</time>
      </trkpt>
      <trkpt lat="46.07597" lon="-1.09386">
        <ele>5</ele>
        <time>2015-02-09T09:50:42.000Z</time>
      </trkpt>
      <trkpt lat="46.07613" lon="-1.09388">
        <ele>5</ele>
        <time>2015-02-09T09:50:53.000Z</time>
      </trkpt>
      <trkpt lat="46.07629" lon="-1.09392">
        <ele>5</ele>
        <time>2015-02-09T09:51:04.000Z</time>
      </trkpt>
      <trkpt lat="46.07647" lon="-1.09396">
        <ele>5</ele>
        <time>2015-02-09T09:51:17.000Z</time>
      </trkpt>
      <trkpt lat="46.07664" lon="-1.09399">
        <ele>5</ele>
        <time>2015-02-09T09:51:29.000Z</time>
      </trkpt>
      <trkpt lat="46.07674" lon="-1.09401">
        <ele>5</ele>
        <time>2015-02-09T09:51:36.000Z</time>
      </trkpt>
      <trkpt lat="46.07689" lon="-1.09404">
        <ele>5</ele>
        <time>2015-02-09T09:51:47.000Z</time>
      </trkpt>
      <trkpt lat="46.07699" lon="-1.09405">
        <ele>5</ele>
        <time>2015-02-09T09:51:55.000Z</time>
      </trkpt>
      <trkpt lat="46.07716" lon="-1.09408">
        <ele>5</ele>
        <time>2015-02-09T09:52:07.000Z</time>
      </trkpt>
      <trkpt lat="46.07731" lon="-1.09411">
        <ele>5</ele>
        <time>2015-02-09T09:52:19.000Z</time>
      </trkpt>
      <trkpt lat="46.07748" lon="-1.09415">
        <ele>5</ele>
        <time>2015-02-09T09:52:31.000Z</time>
      </trkpt>
      <trkpt lat="46.07764" lon="-1.09418">
        <ele>5</ele>
        <time>2015-02-09T09:52:43.000Z</time>
      </trkpt>
      <trkpt lat="46.07782" lon="-1.09422">
        <ele>5</ele>
        <time>2015-02-09T09:52:56.000Z</time>
      </trkpt>
      <trkpt lat="46.07796" lon="-1.09427">
        <ele>5</ele>
        <time>2015-02-09T09:53:07.000Z</time>
      </trkpt>
      <trkpt lat="46.07809" lon="-1.09433">
        <ele>5</ele>
        <time>2015-02-09T09:53:17.000Z</time>
      </trkpt>
      <trkpt lat="46.07825" lon="-1.09441">
        <ele>5</ele>
        <time>2015-02-09T09:53:29.000Z</time>
      </trkpt>
      <trkpt lat="46.0784" lon="-1.09447">
        <ele>5</ele>
        <time>2015-02-09T09:53:41.000Z</time>
      </trkpt>
      <trkpt lat="46.07853" lon="-1.09452">
        <ele>5</ele>
        <time>2015-02-09T09:53:52.000Z</time>
      </trkpt>
      <trkpt lat="46.07861" lon="-1.09456">
        <ele>5</ele>
        <time>2015-02-09T09:53:59.000Z</time>
      </trkpt>
      <trkpt lat="46.07872" lon="-1.09462">
        <ele>5</ele>
        <time>2015-02-09T09:54:08.000Z</time>
      </trkpt>
      <trkpt lat="46.07887" lon="-1.09469">
        <ele>5</ele>
        <time>2015-02-09T09:54:20.000Z</time>
      </trkpt>
      <trkpt lat="46.07905" lon="-1.09478">
        <ele>5</ele>
        <time>2015-02-09T09:54:33.000Z</time>
      </trkpt>
      <trkpt lat="46.07919" lon="-1.09484">
        <ele>5</ele>
        <time>2015-02-09T09:54:44.000Z</time>
      </trkpt>
      <trkpt lat="46.07919" lon="-1.09484">
        <ele>5</ele>
        <time>2015-02-09T09:54:45.000Z</time>
      </trkpt>
      <trkpt lat="46.07931" lon="-1.0949">
        <ele>5</ele>
        <time>2015-02-09T09:54:54.000Z</time>
      </trkpt>
      <trkpt lat="46.07947" lon="-1.09497">
        <ele>5</ele>
        <time>2015-02-09T09:55:05.000Z</time>
      </trkpt>
      <trkpt lat="46.07961" lon="-1.09504">
        <ele>5</ele>
        <time>2015-02-09T09:55:16.000Z</time>
      </trkpt>
      <trkpt lat="46.07975" lon="-1.0951">
        <ele>5</ele>
        <time>2015-02-09T09:55:27.000Z</time>
      </trkpt>
      <trkpt lat="46.0799" lon="-1.09517">
        <ele>5</ele>
        <time>2015-02-09T09:55:38.000Z</time>
      </trkpt>
      <trkpt lat="46.08006" lon="-1.09525">
        <ele>5</ele>
        <time>2015-02-09T09:55:50.000Z</time>
      </trkpt>
      <trkpt lat="46.08023" lon="-1.09534">
        <ele>5</ele>
        <time>2015-02-09T09:56:03.000Z</time>
      </trkpt>
      <trkpt lat="46.08025" lon="-1.09535">
        <ele>5</ele>
        <time>2015-02-09T09:56:05.000Z</time>
      </trkpt>
      <trkpt lat="46.08038" lon="-1.09541">
        <ele>5</ele>
        <time>2015-02-09T09:56:15.000Z</time>
      </trkpt>
      <trkpt lat="46.08054" lon="-1.0955">
        <ele>5</ele>
        <time>2015-02-09T09:56:27.000Z</time>
      </trkpt>
      <trkpt lat="46.08064" lon="-1.09555">
        <ele>5</ele>
        <time>2015-02-09T09:56:35.000Z</time>
      </trkpt>
      <trkpt lat="46.08077" lon="-1.09561">
        <ele>5.1999998092651</ele>
        <time>2015-02-09T09:56:44.000Z</time>
      </trkpt>
      <trkpt lat="46.08094" lon="-1.09569">
        <ele>6.5999999046326</ele>
        <time>2015-02-09T09:56:57.000Z</time>
      </trkpt>
      <trkpt lat="46.08111" lon="-1.09577">
        <ele>6.8000001907349</ele>
        <time>2015-02-09T09:57:09.000Z</time>
      </trkpt>
      <trkpt lat="46.08126" lon="-1.09586">
        <ele>7</ele>
        <time>2015-02-09T09:57:21.000Z</time>
      </trkpt>
      <trkpt lat="46.08141" lon="-1.09594">
        <ele>7</ele>
        <time>2015-02-09T09:57:32.000Z</time>
      </trkpt>
      <trkpt lat="46.08157" lon="-1.09602">
        <ele>7</ele>
        <time>2015-02-09T09:57:44.000Z</time>
      </trkpt>
      <trkpt lat="46.08172" lon="-1.0961">
        <ele>7</ele>
        <time>2015-02-09T09:57:55.000Z</time>
      </trkpt>
      <trkpt lat="46.08186" lon="-1.09618">
        <ele>7</ele>
        <time>2015-02-09T09:58:06.000Z</time>
      </trkpt>
      <trkpt lat="46.08205" lon="-1.09627">
        <ele>7</ele>
        <time>2015-02-09T09:58:20.000Z</time>
      </trkpt>
      <trkpt lat="46.08219" lon="-1.09635">
        <ele>7</ele>
        <time>2015-02-09T09:58:31.000Z</time>
      </trkpt>
      <trkpt lat="46.08236" lon="-1.09643">
        <ele>7</ele>
        <time>2015-02-09T09:58:44.000Z</time>
      </trkpt>
      <trkpt lat="46.08254" lon="-1.09652">
        <ele>7</ele>
        <time>2015-02-09T09:58:58.000Z</time>
      </trkpt>
      <trkpt lat="46.08269" lon="-1.0966">
        <ele>7</ele>
        <time>2015-02-09T09:59:10.000Z</time>
      </trkpt>
      <trkpt lat="46.08288" lon="-1.09667">
        <ele>7</ele>
        <time>2015-02-09T09:59:24.000Z</time>
      </trkpt>
      <trkpt lat="46.08301" lon="-1.0967">
        <ele>7</ele>
        <time>2015-02-09T09:59:34.000Z</time>
      </trkpt>
      <trkpt lat="46.08304" lon="-1.09676">
        <ele>7</ele>
        <time>2015-02-09T09:59:38.000Z</time>
      </trkpt>
      <trkpt lat="46.0831" lon="-1.09678">
        <ele>7</ele>
        <time>2015-02-09T09:59:42.000Z</time>
      </trkpt>
      <trkpt lat="46.08321" lon="-1.0969">
        <ele>7</ele>
        <time>2015-02-09T09:59:53.000Z</time>
      </trkpt>
      <trkpt lat="46.08328" lon="-1.09705">
        <ele>8.1999998092651</ele>
        <time>2015-02-09T10:00:02.000Z</time>
      </trkpt>
      <trkpt lat="46.08351" lon="-1.09711">
        <ele>9</ele>
        <time>2015-02-09T10:00:21.000Z</time>
      </trkpt>
      <trkpt lat="46.08367" lon="-1.09711">
        <ele>9</ele>
        <time>2015-02-09T10:00:32.000Z</time>
      </trkpt>
      <trkpt lat="46.08384" lon="-1.09717">
        <ele>9</ele>
        <time>2015-02-09T10:00:44.000Z</time>
      </trkpt>
      <trkpt lat="46.08398" lon="-1.09722">
        <ele>9</ele>
        <time>2015-02-09T10:00:54.000Z</time>
      </trkpt>
      <trkpt lat="46.08416" lon="-1.09728">
        <ele>9</ele>
        <time>2015-02-09T10:01:07.000Z</time>
      </trkpt>
      <trkpt lat="46.08435" lon="-1.09735">
        <ele>9</ele>
        <time>2015-02-09T10:01:21.000Z</time>
      </trkpt>
      <trkpt lat="46.08451" lon="-1.0974">
        <ele>9</ele>
        <time>2015-02-09T10:01:33.000Z</time>
      </trkpt>
      <trkpt lat="46.08461" lon="-1.09744">
        <ele>9</ele>
        <time>2015-02-09T10:01:41.000Z</time>
      </trkpt>
      <trkpt lat="46.08476" lon="-1.09749">
        <ele>9</ele>
        <time>2015-02-09T10:01:52.000Z</time>
      </trkpt>
      <trkpt lat="46.08491" lon="-1.09754">
        <ele>9</ele>
        <time>2015-02-09T10:02:03.000Z</time>
      </trkpt>
      <trkpt lat="46.08508" lon="-1.0976">
        <ele>9.1999998092651</ele>
        <time>2015-02-09T10:02:16.000Z</time>
      </trkpt>
      <trkpt lat="46.08524" lon="-1.09765">
        <ele>10.39999961853</ele>
        <time>2015-02-09T10:02:27.000Z</time>
      </trkpt>
      <trkpt lat="46.08538" lon="-1.0977">
        <ele>10.800000190735</ele>
        <time>2015-02-09T10:02:37.000Z</time>
      </trkpt>
      <trkpt lat="46.08553" lon="-1.09774">
        <ele>11</ele>
        <time>2015-02-09T10:02:48.000Z</time>
      </trkpt>
      <trkpt lat="46.08567" lon="-1.09778">
        <ele>11</ele>
        <time>2015-02-09T10:02:58.000Z</time>
      </trkpt>
      <trkpt lat="46.08601" lon="-1.09787">
        <ele>11</ele>
        <time>2015-02-09T10:03:22.000Z</time>
      </trkpt>
      <trkpt lat="46.08615" lon="-1.0979">
        <ele>11</ele>
        <time>2015-02-09T10:03:32.000Z</time>
      </trkpt>
      <trkpt lat="46.0863" lon="-1.09795">
        <ele>11</ele>
        <time>2015-02-09T10:03:43.000Z</time>
      </trkpt>
      <trkpt lat="46.08648" lon="-1.09799">
        <ele>11</ele>
        <time>2015-02-09T10:03:56.000Z</time>
      </trkpt>
      <trkpt lat="46.08663" lon="-1.09804">
        <ele>11</ele>
        <time>2015-02-09T10:04:08.000Z</time>
      </trkpt>
      <trkpt lat="46.08676" lon="-1.09807">
        <ele>11</ele>
        <time>2015-02-09T10:04:17.000Z</time>
      </trkpt>
      <trkpt lat="46.08693" lon="-1.0981">
        <ele>11</ele>
        <time>2015-02-09T10:04:29.000Z</time>
      </trkpt>
      <trkpt lat="46.08706" lon="-1.09814">
        <ele>11</ele>
        <time>2015-02-09T10:04:38.000Z</time>
      </trkpt>
      <trkpt lat="46.08721" lon="-1.09817">
        <ele>11</ele>
        <time>2015-02-09T10:04:48.000Z</time>
      </trkpt>
      <trkpt lat="46.08739" lon="-1.09823">
        <ele>11</ele>
        <time>2015-02-09T10:05:01.000Z</time>
      </trkpt>
      <trkpt lat="46.08752" lon="-1.09827">
        <ele>11</ele>
        <time>2015-02-09T10:05:10.000Z</time>
      </trkpt>
      <trkpt lat="46.08767" lon="-1.09831">
        <ele>11</ele>
        <time>2015-02-09T10:05:20.000Z</time>
      </trkpt>
      <trkpt lat="46.08785" lon="-1.09836">
        <ele>11</ele>
        <time>2015-02-09T10:05:32.000Z</time>
      </trkpt>
      <trkpt lat="46.08801" lon="-1.09841">
        <ele>11</ele>
        <time>2015-02-09T10:05:43.000Z</time>
      </trkpt>
      <trkpt lat="46.08817" lon="-1.09845">
        <ele>11</ele>
        <time>2015-02-09T10:05:54.000Z</time>
      </trkpt>
      <trkpt lat="46.08831" lon="-1.0985">
        <ele>11</ele>
        <time>2015-02-09T10:06:04.000Z</time>
      </trkpt>
      <trkpt lat="46.0885" lon="-1.09855">
        <ele>11</ele>
        <time>2015-02-09T10:06:17.000Z</time>
      </trkpt>
      <trkpt lat="46.08864" lon="-1.0986">
        <ele>11</ele>
        <time>2015-02-09T10:06:27.000Z</time>
      </trkpt>
      <trkpt lat="46.08878" lon="-1.09864">
        <ele>11</ele>
        <time>2015-02-09T10:06:37.000Z</time>
      </trkpt>
      <trkpt lat="46.08895" lon="-1.0987">
        <ele>11</ele>
        <time>2015-02-09T10:06:49.000Z</time>
      </trkpt>
      <trkpt lat="46.08914" lon="-1.09876">
        <ele>11</ele>
        <time>2015-02-09T10:07:02.000Z</time>
      </trkpt>
      <trkpt lat="46.08933" lon="-1.09882">
        <ele>11</ele>
        <time>2015-02-09T10:07:16.000Z</time>
      </trkpt>
      <trkpt lat="46.08946" lon="-1.09887">
        <ele>11</ele>
        <time>2015-02-09T10:07:25.000Z</time>
      </trkpt>
      <trkpt lat="46.08961" lon="-1.09893">
        <ele>11</ele>
        <time>2015-02-09T10:07:35.000Z</time>
      </trkpt>
      <trkpt lat="46.08974" lon="-1.09897">
        <ele>11</ele>
        <time>2015-02-09T10:07:45.000Z</time>
      </trkpt>
      <trkpt lat="46.08988" lon="-1.09903">
        <ele>11</ele>
        <time>2015-02-09T10:07:55.000Z</time>
      </trkpt>
      <trkpt lat="46.09002" lon="-1.09909">
        <ele>11</ele>
        <time>2015-02-09T10:08:06.000Z</time>
      </trkpt>
      <trkpt lat="46.09016" lon="-1.09916">
        <ele>11</ele>
        <time>2015-02-09T10:08:16.000Z</time>
      </trkpt>
      <trkpt lat="46.0903" lon="-1.09921">
        <ele>11</ele>
        <time>2015-02-09T10:08:27.000Z</time>
      </trkpt>
      <trkpt lat="46.09032" lon="-1.09922">
        <ele>11</ele>
        <time>2015-02-09T10:08:29.000Z</time>
      </trkpt>
      <trkpt lat="46.09036" lon="-1.09923">
        <ele>11</ele>
        <time>2015-02-09T10:08:35.000Z</time>
      </trkpt>
      <trkpt lat="46.09047" lon="-1.09929">
        <ele>11</ele>
        <time>2015-02-09T10:08:44.000Z</time>
      </trkpt>
      <trkpt lat="46.09063" lon="-1.09935">
        <ele>11</ele>
        <time>2015-02-09T10:08:55.000Z</time>
      </trkpt>
      <trkpt lat="46.09077" lon="-1.09941">
        <ele>11</ele>
        <time>2015-02-09T10:09:05.000Z</time>
      </trkpt>
      <trkpt lat="46.09093" lon="-1.09948">
        <ele>11</ele>
        <time>2015-02-09T10:09:17.000Z</time>
      </trkpt>
      <trkpt lat="46.09111" lon="-1.09956">
        <ele>11</ele>
        <time>2015-02-09T10:09:30.000Z</time>
      </trkpt>
      <trkpt lat="46.09128" lon="-1.09963">
        <ele>11</ele>
        <time>2015-02-09T10:09:42.000Z</time>
      </trkpt>
      <trkpt lat="46.09142" lon="-1.09969">
        <ele>11</ele>
        <time>2015-02-09T10:09:53.000Z</time>
      </trkpt>
      <trkpt lat="46.09159" lon="-1.09977">
        <ele>11</ele>
        <time>2015-02-09T10:10:05.000Z</time>
      </trkpt>
      <trkpt lat="46.09171" lon="-1.09982">
        <ele>11</ele>
        <time>2015-02-09T10:10:14.000Z</time>
      </trkpt>
      <trkpt lat="46.09188" lon="-1.0999">
        <ele>11</ele>
        <time>2015-02-09T10:10:27.000Z</time>
      </trkpt>
      <trkpt lat="46.09206" lon="-1.09997">
        <ele>11</ele>
        <time>2015-02-09T10:10:40.000Z</time>
      </trkpt>
      <trkpt lat="46.09222" lon="-1.10004">
        <ele>11</ele>
        <time>2015-02-09T10:10:52.000Z</time>
      </trkpt>
      <trkpt lat="46.09234" lon="-1.10009">
        <ele>11</ele>
        <time>2015-02-09T10:11:01.000Z</time>
      </trkpt>
      <trkpt lat="46.09252" lon="-1.10016">
        <ele>11</ele>
        <time>2015-02-09T10:11:14.000Z</time>
      </trkpt>
      <trkpt lat="46.09268" lon="-1.10023">
        <ele>11</ele>
        <time>2015-02-09T10:11:26.000Z</time>
      </trkpt>
      <trkpt lat="46.09285" lon="-1.1003">
        <ele>11</ele>
        <time>2015-02-09T10:11:38.000Z</time>
      </trkpt>
      <trkpt lat="46.09299" lon="-1.10037">
        <ele>11</ele>
        <time>2015-02-09T10:11:48.000Z</time>
      </trkpt>
      <trkpt lat="46.09314" lon="-1.10043">
        <ele>11</ele>
        <time>2015-02-09T10:11:59.000Z</time>
      </trkpt>
      <trkpt lat="46.09343" lon="-1.10057">
        <ele>11</ele>
        <time>2015-02-09T10:12:21.000Z</time>
      </trkpt>
      <trkpt lat="46.09357" lon="-1.10062">
        <ele>11</ele>
        <time>2015-02-09T10:12:31.000Z</time>
      </trkpt>
      <trkpt lat="46.09375" lon="-1.1007">
        <ele>11</ele>
        <time>2015-02-09T10:12:44.000Z</time>
      </trkpt>
      <trkpt lat="46.09389" lon="-1.10076">
        <ele>11</ele>
        <time>2015-02-09T10:12:55.000Z</time>
      </trkpt>
      <trkpt lat="46.09405" lon="-1.10082">
        <ele>11</ele>
        <time>2015-02-09T10:13:06.000Z</time>
      </trkpt>
      <trkpt lat="46.09421" lon="-1.10089">
        <ele>11</ele>
        <time>2015-02-09T10:13:18.000Z</time>
      </trkpt>
      <trkpt lat="46.09435" lon="-1.101">
        <ele>11</ele>
        <time>2015-02-09T10:13:30.000Z</time>
      </trkpt>
      <trkpt lat="46.09446" lon="-1.10102">
        <ele>11</ele>
        <time>2015-02-09T10:13:38.000Z</time>
      </trkpt>
      <trkpt lat="46.09459" lon="-1.10107">
        <ele>11</ele>
        <time>2015-02-09T10:13:47.000Z</time>
      </trkpt>
      <trkpt lat="46.09468" lon="-1.10113">
        <ele>11</ele>
        <time>2015-02-09T10:13:54.000Z</time>
      </trkpt>
      <trkpt lat="46.09476" lon="-1.1012">
        <ele>11</ele>
        <time>2015-02-09T10:14:02.000Z</time>
      </trkpt>
      <trkpt lat="46.0949" lon="-1.10132">
        <ele>11</ele>
        <time>2015-02-09T10:14:13.000Z</time>
      </trkpt>
      <trkpt lat="46.09503" lon="-1.10137">
        <ele>11</ele>
        <time>2015-02-09T10:14:22.000Z</time>
      </trkpt>
      <trkpt lat="46.09514" lon="-1.10144">
        <ele>11</ele>
        <time>2015-02-09T10:14:30.000Z</time>
      </trkpt>
      <trkpt lat="46.09522" lon="-1.10157">
        <ele>11</ele>
        <time>2015-02-09T10:14:38.000Z</time>
      </trkpt>
      <trkpt lat="46.09525" lon="-1.10162">
        <ele>11</ele>
        <time>2015-02-09T10:14:41.000Z</time>
      </trkpt>
      <trkpt lat="46.09537" lon="-1.10181">
        <ele>11</ele>
        <time>2015-02-09T10:14:52.000Z</time>
      </trkpt>
      <trkpt lat="46.09549" lon="-1.102">
        <ele>11</ele>
        <time>2015-02-09T10:15:04.000Z</time>
      </trkpt>
      <trkpt lat="46.09559" lon="-1.10214">
        <ele>11</ele>
        <time>2015-02-09T10:15:14.000Z</time>
      </trkpt>
      <trkpt lat="46.09567" lon="-1.10231">
        <ele>11</ele>
        <time>2015-02-09T10:15:24.000Z</time>
      </trkpt>
      <trkpt lat="46.09575" lon="-1.10246">
        <ele>11</ele>
        <time>2015-02-09T10:15:33.000Z</time>
      </trkpt>
      <trkpt lat="46.09582" lon="-1.10258">
        <ele>11.60000038147</ele>
        <time>2015-02-09T10:15:41.000Z</time>
      </trkpt>
      <trkpt lat="46.0959" lon="-1.10267">
        <ele>12.39999961853</ele>
        <time>2015-02-09T10:15:48.000Z</time>
      </trkpt>
      <trkpt lat="46.096" lon="-1.10279">
        <ele>12.800000190735</ele>
        <time>2015-02-09T10:15:57.000Z</time>
      </trkpt>
      <trkpt lat="46.09608" lon="-1.10285">
        <ele>13</ele>
        <time>2015-02-09T10:16:03.000Z</time>
      </trkpt>
      <trkpt lat="46.09617" lon="-1.10293">
        <ele>13</ele>
        <time>2015-02-09T10:16:11.000Z</time>
      </trkpt>
      <trkpt lat="46.09627" lon="-1.10299">
        <ele>13</ele>
        <time>2015-02-09T10:16:18.000Z</time>
      </trkpt>
      <trkpt lat="46.09637" lon="-1.10304">
        <ele>13</ele>
        <time>2015-02-09T10:16:25.000Z</time>
      </trkpt>
      <trkpt lat="46.09648" lon="-1.10313">
        <ele>13.39999961853</ele>
        <time>2015-02-09T10:16:33.000Z</time>
      </trkpt>
      <trkpt lat="46.09659" lon="-1.10328">
        <ele>14.39999961853</ele>
        <time>2015-02-09T10:16:42.000Z</time>
      </trkpt>
      <trkpt lat="46.0967" lon="-1.10348">
        <ele>14.800000190735</ele>
        <time>2015-02-09T10:16:53.000Z</time>
      </trkpt>
      <trkpt lat="46.09678" lon="-1.10363">
        <ele>15</ele>
        <time>2015-02-09T10:17:02.000Z</time>
      </trkpt>
      <trkpt lat="46.09686" lon="-1.10378">
        <ele>15</ele>
        <time>2015-02-09T10:17:11.000Z</time>
      </trkpt>
      <trkpt lat="46.09695" lon="-1.10394">
        <ele>15</ele>
        <time>2015-02-09T10:17:20.000Z</time>
      </trkpt>
      <trkpt lat="46.09707" lon="-1.10416">
        <ele>15</ele>
        <time>2015-02-09T10:17:32.000Z</time>
      </trkpt>
      <trkpt lat="46.09716" lon="-1.10435">
        <ele>15</ele>
        <time>2015-02-09T10:17:42.000Z</time>
      </trkpt>
      <trkpt lat="46.09727" lon="-1.10456">
        <ele>15</ele>
        <time>2015-02-09T10:17:53.000Z</time>
      </trkpt>
      <trkpt lat="46.09738" lon="-1.10476">
        <ele>15</ele>
        <time>2015-02-09T10:18:04.000Z</time>
      </trkpt>
      <trkpt lat="46.09748" lon="-1.10496">
        <ele>15</ele>
        <time>2015-02-09T10:18:15.000Z</time>
      </trkpt>
      <trkpt lat="46.09756" lon="-1.10513">
        <ele>15</ele>
        <time>2015-02-09T10:18:24.000Z</time>
      </trkpt>
      <trkpt lat="46.09765" lon="-1.10529">
        <ele>15</ele>
        <time>2015-02-09T10:18:33.000Z</time>
      </trkpt>
      <trkpt lat="46.09774" lon="-1.10544">
        <ele>15</ele>
        <time>2015-02-09T10:18:42.000Z</time>
      </trkpt>
      <trkpt lat="46.09783" lon="-1.1056">
        <ele>15</ele>
        <time>2015-02-09T10:18:51.000Z</time>
      </trkpt>
      <trkpt lat="46.09793" lon="-1.10579">
        <ele>15</ele>
        <time>2015-02-09T10:19:02.000Z</time>
      </trkpt>
      <trkpt lat="46.09804" lon="-1.10602">
        <ele>15</ele>
        <time>2015-02-09T10:19:14.000Z</time>
      </trkpt>
      <trkpt lat="46.09814" lon="-1.1062">
        <ele>15</ele>
        <time>2015-02-09T10:19:24.000Z</time>
      </trkpt>
      <trkpt lat="46.09821" lon="-1.10635">
        <ele>15</ele>
        <time>2015-02-09T10:19:32.000Z</time>
      </trkpt>
      <trkpt lat="46.09831" lon="-1.10654">
        <ele>15</ele>
        <time>2015-02-09T10:19:42.000Z</time>
      </trkpt>
      <trkpt lat="46.09839" lon="-1.10671">
        <ele>15</ele>
        <time>2015-02-09T10:19:51.000Z</time>
      </trkpt>
      <trkpt lat="46.09847" lon="-1.10687">
        <ele>15</ele>
        <time>2015-02-09T10:20:00.000Z</time>
      </trkpt>
      <trkpt lat="46.09854" lon="-1.10698">
        <ele>15</ele>
        <time>2015-02-09T10:20:07.000Z</time>
      </trkpt>
      <trkpt lat="46.09865" lon="-1.10719">
        <ele>15</ele>
        <time>2015-02-09T10:20:19.000Z</time>
      </trkpt>
      <trkpt lat="46.09874" lon="-1.10736">
        <ele>15</ele>
        <time>2015-02-09T10:20:28.000Z</time>
      </trkpt>
      <trkpt lat="46.09881" lon="-1.1075">
        <ele>15</ele>
        <time>2015-02-09T10:20:35.000Z</time>
      </trkpt>
      <trkpt lat="46.09889" lon="-1.10764">
        <ele>15</ele>
        <time>2015-02-09T10:20:43.000Z</time>
      </trkpt>
      <trkpt lat="46.09896" lon="-1.10781">
        <ele>15</ele>
        <time>2015-02-09T10:20:51.000Z</time>
      </trkpt>
      <trkpt lat="46.09901" lon="-1.108">
        <ele>16.200000762939</ele>
        <time>2015-02-09T10:21:00.000Z</time>
      </trkpt>
      <trkpt lat="46.09908" lon="-1.10823">
        <ele>16.799999237061</ele>
        <time>2015-02-09T10:21:11.000Z</time>
      </trkpt>
      <trkpt lat="46.09913" lon="-1.10836">
        <ele>17</ele>
        <time>2015-02-09T10:21:18.000Z</time>
      </trkpt>
      <trkpt lat="46.09921" lon="-1.10854">
        <ele>17</ele>
        <time>2015-02-09T10:21:27.000Z</time>
      </trkpt>
      <trkpt lat="46.09931" lon="-1.10864">
        <ele>17</ele>
        <time>2015-02-09T10:21:35.000Z</time>
      </trkpt>
      <trkpt lat="46.09942" lon="-1.1087">
        <ele>17</ele>
        <time>2015-02-09T10:21:42.000Z</time>
      </trkpt>
      <trkpt lat="46.09952" lon="-1.10881">
        <ele>17</ele>
        <time>2015-02-09T10:21:50.000Z</time>
      </trkpt>
      <trkpt lat="46.09961" lon="-1.10899">
        <ele>16</ele>
        <time>2015-02-09T10:21:59.000Z</time>
      </trkpt>
      <trkpt lat="46.09968" lon="-1.10911">
        <ele>15.39999961853</ele>
        <time>2015-02-09T10:22:06.000Z</time>
      </trkpt>
      <trkpt lat="46.09988" lon="-1.10945">
        <ele>15.199999809265</ele>
        <time>2015-02-09T10:22:25.000Z</time>
      </trkpt>
      <trkpt lat="46.09994" lon="-1.10956">
        <ele>15</ele>
        <time>2015-02-09T10:22:31.000Z</time>
      </trkpt>
      <trkpt lat="46.10003" lon="-1.10971">
        <ele>15</ele>
        <time>2015-02-09T10:22:39.000Z</time>
      </trkpt>
      <trkpt lat="46.10012" lon="-1.10988">
        <ele>15</ele>
        <time>2015-02-09T10:22:48.000Z</time>
      </trkpt>
      <trkpt lat="46.1002" lon="-1.11005">
        <ele>15</ele>
        <time>2015-02-09T10:22:57.000Z</time>
      </trkpt>
      <trkpt lat="46.10031" lon="-1.11026">
        <ele>15</ele>
        <time>2015-02-09T10:23:08.000Z</time>
      </trkpt>
      <trkpt lat="46.10042" lon="-1.11048">
        <ele>14</ele>
        <time>2015-02-09T10:23:19.000Z</time>
      </trkpt>
      <trkpt lat="46.10054" lon="-1.11069">
        <ele>13.39999961853</ele>
        <time>2015-02-09T10:23:30.000Z</time>
      </trkpt>
      <trkpt lat="46.10066" lon="-1.11088">
        <ele>13.199999809265</ele>
        <time>2015-02-09T10:23:40.000Z</time>
      </trkpt>
      <trkpt lat="46.10075" lon="-1.11102">
        <ele>13</ele>
        <time>2015-02-09T10:23:48.000Z</time>
      </trkpt>
      <trkpt lat="46.10086" lon="-1.11118">
        <ele>13</ele>
        <time>2015-02-09T10:23:57.000Z</time>
      </trkpt>
      <trkpt lat="46.10094" lon="-1.1113">
        <ele>13</ele>
        <time>2015-02-09T10:24:04.000Z</time>
      </trkpt>
      <trkpt lat="46.10107" lon="-1.11149">
        <ele>13</ele>
        <time>2015-02-09T10:24:15.000Z</time>
      </trkpt>
      <trkpt lat="46.10119" lon="-1.11166">
        <ele>13</ele>
        <time>2015-02-09T10:24:25.000Z</time>
      </trkpt>
      <trkpt lat="46.10131" lon="-1.11182">
        <ele>13</ele>
        <time>2015-02-09T10:24:35.000Z</time>
      </trkpt>
      <trkpt lat="46.10145" lon="-1.11197">
        <ele>13</ele>
        <time>2015-02-09T10:24:45.000Z</time>
      </trkpt>
      <trkpt lat="46.10159" lon="-1.11212">
        <ele>13</ele>
        <time>2015-02-09T10:24:55.000Z</time>
      </trkpt>
      <trkpt lat="46.1017" lon="-1.11224">
        <ele>13</ele>
        <time>2015-02-09T10:25:03.000Z</time>
      </trkpt>
      <trkpt lat="46.10183" lon="-1.11237">
        <ele>13</ele>
        <time>2015-02-09T10:25:12.000Z</time>
      </trkpt>
      <trkpt lat="46.10209" lon="-1.11262">
        <ele>13</ele>
        <time>2015-02-09T10:25:31.000Z</time>
      </trkpt>
      <trkpt lat="46.10215" lon="-1.11267">
        <ele>13</ele>
        <time>2015-02-09T10:25:35.000Z</time>
      </trkpt>
      <trkpt lat="46.10229" lon="-1.1128">
        <ele>13</ele>
        <time>2015-02-09T10:25:45.000Z</time>
      </trkpt>
      <trkpt lat="46.10235" lon="-1.11284">
        <ele>13</ele>
        <time>2015-02-09T10:25:49.000Z</time>
      </trkpt>
      <trkpt lat="46.10242" lon="-1.1129">
        <ele>13</ele>
        <time>2015-02-09T10:25:54.000Z</time>
      </trkpt>
      <trkpt lat="46.10251" lon="-1.11298">
        <ele>13</ele>
        <time>2015-02-09T10:26:01.000Z</time>
      </trkpt>
      <trkpt lat="46.1026" lon="-1.11308">
        <ele>13</ele>
        <time>2015-02-09T10:26:09.000Z</time>
      </trkpt>
      <trkpt lat="46.10269" lon="-1.11315">
        <ele>13</ele>
        <time>2015-02-09T10:26:15.000Z</time>
      </trkpt>
      <trkpt lat="46.10282" lon="-1.11324">
        <ele>13</ele>
        <time>2015-02-09T10:26:24.000Z</time>
      </trkpt>
      <trkpt lat="46.10293" lon="-1.11331">
        <ele>13</ele>
        <time>2015-02-09T10:26:32.000Z</time>
      </trkpt>
      <trkpt lat="46.10303" lon="-1.11337">
        <ele>13</ele>
        <time>2015-02-09T10:26:39.000Z</time>
      </trkpt>
      <trkpt lat="46.10303" lon="-1.11338">
        <ele>13</ele>
        <time>2015-02-09T10:26:40.000Z</time>
      </trkpt>
      <trkpt lat="46.1031" lon="-1.11344">
        <ele>12.60000038147</ele>
        <time>2015-02-09T10:26:45.000Z</time>
      </trkpt>
      <trkpt lat="46.10314" lon="-1.11346">
        <ele>12.199999809265</ele>
        <time>2015-02-09T10:26:48.000Z</time>
      </trkpt>
      <trkpt lat="46.10329" lon="-1.11353">
        <ele>11.39999961853</ele>
        <time>2015-02-09T10:26:56.000Z</time>
      </trkpt>
      <trkpt lat="46.10342" lon="-1.1136">
        <ele>11.199999809265</ele>
        <time>2015-02-09T10:27:04.000Z</time>
      </trkpt>
      <trkpt lat="46.10354" lon="-1.11367">
        <ele>11</ele>
        <time>2015-02-09T10:27:12.000Z</time>
      </trkpt>
      <trkpt lat="46.10375" lon="-1.11378">
        <ele>11</ele>
        <time>2015-02-09T10:27:26.000Z</time>
      </trkpt>
      <trkpt lat="46.10376" lon="-1.11378">
        <ele>11</ele>
        <time>2015-02-09T10:27:27.000Z</time>
      </trkpt>
      <trkpt lat="46.1038" lon="-1.11382">
        <ele>11</ele>
        <time>2015-02-09T10:27:31.000Z</time>
      </trkpt>
      <trkpt lat="46.10381" lon="-1.11404">
        <ele>11</ele>
        <time>2015-02-09T10:27:40.000Z</time>
      </trkpt>
      <trkpt lat="46.10379" lon="-1.1143">
        <ele>11</ele>
        <time>2015-02-09T10:27:51.000Z</time>
      </trkpt>
      <trkpt lat="46.10376" lon="-1.11454">
        <ele>11</ele>
        <time>2015-02-09T10:28:01.000Z</time>
      </trkpt>
      <trkpt lat="46.10373" lon="-1.1148">
        <ele>11</ele>
        <time>2015-02-09T10:28:12.000Z</time>
      </trkpt>
      <trkpt lat="46.10369" lon="-1.11506">
        <ele>11</ele>
        <time>2015-02-09T10:28:23.000Z</time>
      </trkpt>
      <trkpt lat="46.10365" lon="-1.11532">
        <ele>11</ele>
        <time>2015-02-09T10:28:34.000Z</time>
      </trkpt>
      <trkpt lat="46.10362" lon="-1.11558">
        <ele>11</ele>
        <time>2015-02-09T10:28:45.000Z</time>
      </trkpt>
      <trkpt lat="46.10361" lon="-1.11582">
        <ele>11</ele>
        <time>2015-02-09T10:28:55.000Z</time>
      </trkpt>
      <trkpt lat="46.10357" lon="-1.116">
        <ele>11</ele>
        <time>2015-02-09T10:29:03.000Z</time>
      </trkpt>
      <trkpt lat="46.10352" lon="-1.11625">
        <ele>11</ele>
        <time>2015-02-09T10:29:14.000Z</time>
      </trkpt>
      <trkpt lat="46.10346" lon="-1.1165">
        <ele>11</ele>
        <time>2015-02-09T10:29:25.000Z</time>
      </trkpt>
      <trkpt lat="46.10339" lon="-1.11674">
        <ele>11</ele>
        <time>2015-02-09T10:29:36.000Z</time>
      </trkpt>
      <trkpt lat="46.10334" lon="-1.11691">
        <ele>11</ele>
        <time>2015-02-09T10:29:44.000Z</time>
      </trkpt>
      <trkpt lat="46.10328" lon="-1.11708">
        <ele>11</ele>
        <time>2015-02-09T10:29:52.000Z</time>
      </trkpt>
      <trkpt lat="46.1032" lon="-1.11731">
        <ele>11</ele>
        <time>2015-02-09T10:30:03.000Z</time>
      </trkpt>
      <trkpt lat="46.10314" lon="-1.11751">
        <ele>11</ele>
        <time>2015-02-09T10:30:12.000Z</time>
      </trkpt>
      <trkpt lat="46.10309" lon="-1.11773">
        <ele>11</ele>
        <time>2015-02-09T10:30:22.000Z</time>
      </trkpt>
      <trkpt lat="46.1031" lon="-1.118">
        <ele>11</ele>
        <time>2015-02-09T10:30:33.000Z</time>
      </trkpt>
      <trkpt lat="46.10315" lon="-1.1182">
        <ele>11</ele>
        <time>2015-02-09T10:30:42.000Z</time>
      </trkpt>
      <trkpt lat="46.10326" lon="-1.11826">
        <ele>11</ele>
        <time>2015-02-09T10:30:49.000Z</time>
      </trkpt>
      <trkpt lat="46.10344" lon="-1.11827">
        <ele>11</ele>
        <time>2015-02-09T10:31:00.000Z</time>
      </trkpt>
      <trkpt lat="46.10356" lon="-1.11828">
        <ele>11</ele>
        <time>2015-02-09T10:31:07.000Z</time>
      </trkpt>
      <trkpt lat="46.10373" lon="-1.11829">
        <ele>11</ele>
        <time>2015-02-09T10:31:18.000Z</time>
      </trkpt>
      <trkpt lat="46.10385" lon="-1.1183">
        <ele>11</ele>
        <time>2015-02-09T10:31:26.000Z</time>
      </trkpt>
      <trkpt lat="46.10393" lon="-1.11831">
        <ele>11</ele>
        <time>2015-02-09T10:31:31.000Z</time>
      </trkpt>
      <trkpt lat="46.10409" lon="-1.11833">
        <ele>10.60000038147</ele>
        <time>2015-02-09T10:31:41.000Z</time>
      </trkpt>
      <trkpt lat="46.10424" lon="-1.11835">
        <ele>9.6000003814697</ele>
        <time>2015-02-09T10:31:50.000Z</time>
      </trkpt>
      <trkpt lat="46.10437" lon="-1.11837">
        <ele>9.1999998092651</ele>
        <time>2015-02-09T10:31:58.000Z</time>
      </trkpt>
      <trkpt lat="46.1045" lon="-1.11838">
        <ele>9</ele>
        <time>2015-02-09T10:32:06.000Z</time>
      </trkpt>
      <trkpt lat="46.10467" lon="-1.11839">
        <ele>9</ele>
        <time>2015-02-09T10:32:17.000Z</time>
      </trkpt>
      <trkpt lat="46.10475" lon="-1.11841">
        <ele>9</ele>
        <time>2015-02-09T10:32:22.000Z</time>
      </trkpt>
      <trkpt lat="46.10483" lon="-1.11856">
        <ele>9</ele>
        <time>2015-02-09T10:32:30.000Z</time>
      </trkpt>
      <trkpt lat="46.10486" lon="-1.11861">
        <ele>9</ele>
        <time>2015-02-09T10:32:33.000Z</time>
      </trkpt>
      <trkpt lat="46.10496" lon="-1.11871">
        <ele>9</ele>
        <time>2015-02-09T10:32:41.000Z</time>
      </trkpt>
      <trkpt lat="46.10514" lon="-1.11878">
        <ele>9</ele>
        <time>2015-02-09T10:32:52.000Z</time>
      </trkpt>
      <trkpt lat="46.10527" lon="-1.11876">
        <ele>9</ele>
        <time>2015-02-09T10:33:00.000Z</time>
      </trkpt>
      <trkpt lat="46.10534" lon="-1.11878">
        <ele>9</ele>
        <time>2015-02-09T10:33:04.000Z</time>
      </trkpt>
      <trkpt lat="46.10547" lon="-1.11857">
        <ele>9</ele>
        <time>2015-02-09T10:33:16.000Z</time>
      </trkpt>
      <trkpt lat="46.10548" lon="-1.11849">
        <ele>9</ele>
        <time>2015-02-09T10:33:20.000Z</time>
      </trkpt>
      <trkpt lat="46.10551" lon="-1.11843">
        <ele>9</ele>
        <time>2015-02-09T10:33:23.000Z</time>
      </trkpt>
      <trkpt lat="46.10558" lon="-1.11824">
        <ele>8.3999996185303</ele>
        <time>2015-02-09T10:33:32.000Z</time>
      </trkpt>
      <trkpt lat="46.10565" lon="-1.11799">
        <ele>7.4000000953674</ele>
        <time>2015-02-09T10:33:43.000Z</time>
      </trkpt>
      <trkpt lat="46.1057" lon="-1.11779">
        <ele>7.1999998092651</ele>
        <time>2015-02-09T10:33:52.000Z</time>
      </trkpt>
      <trkpt lat="46.10574" lon="-1.11761">
        <ele>7</ele>
        <time>2015-02-09T10:34:00.000Z</time>
      </trkpt>
      <trkpt lat="46.10578" lon="-1.11744">
        <ele>7</ele>
        <time>2015-02-09T10:34:08.000Z</time>
      </trkpt>
      <trkpt lat="46.10584" lon="-1.11722">
        <ele>7</ele>
        <time>2015-02-09T10:34:18.000Z</time>
      </trkpt>
      <trkpt lat="46.10591" lon="-1.11697">
        <ele>7</ele>
        <time>2015-02-09T10:34:31.000Z</time>
      </trkpt>
      <trkpt lat="46.10591" lon="-1.11696">
        <ele>7</ele>
        <time>2015-02-09T10:34:32.000Z</time>
      </trkpt>
      <trkpt lat="46.1059" lon="-1.11687">
        <ele>7</ele>
        <time>2015-02-09T10:34:37.000Z</time>
      </trkpt>
      <trkpt lat="46.10588" lon="-1.11671">
        <ele>7</ele>
        <time>2015-02-09T10:34:46.000Z</time>
      </trkpt>
      <trkpt lat="46.10586" lon="-1.11668">
        <ele>7</ele>
        <time>2015-02-09T10:34:49.000Z</time>
      </trkpt>
    </trkseg>
  </trk>
</gpx>